<?xml version="1.0" encoding="UTF-8" standalone="no" ?>
<gpx xmlns="http://www.topografix.com/GPX/1/1" xmlns:xsi="http://www.w3.org/2001/XMLSchema-instance" xsi:schemaLocation="http://www.topografix.com/GPX/1/1 http://www.topografix.com/GPX/1/1/gpx.xsd" version="1.1" creator="VisuGPX - https://www.visugpx.com">
  <metadata>
    <name>Rando le Clos de la Cime la Bréole Espinasse</name>
  </metadata>
  <trk>
    <name><![CDATA[Rando le Clos de la Cime la Bréole Espinasse]]></name>
    <trkseg>
      <trkpt lat="44.45741" lon="6.29225">
        <ele>979.795254</ele>
        <time>2025-11-19T09:39:46.831Z</time>
      </trkpt>
      <trkpt lat="44.45736" lon="6.29237">
        <ele>979.795254</ele>
        <time>2025-11-19T09:39:57.356Z</time>
      </trkpt>
      <trkpt lat="44.45732" lon="6.29248">
        <ele>979.795254</ele>
        <time>2025-11-19T09:40:05.394Z</time>
      </trkpt>
      <trkpt lat="44.45726" lon="6.2926">
        <ele>979.795254</ele>
        <time>2025-11-19T09:40:16.363Z</time>
      </trkpt>
      <trkpt lat="44.45722" lon="6.29271">
        <ele>979.795254</ele>
        <time>2025-11-19T09:40:26.359Z</time>
      </trkpt>
      <trkpt lat="44.45715" lon="6.29281">
        <ele>979.795254</ele>
        <time>2025-11-19T09:40:38.370Z</time>
      </trkpt>
      <trkpt lat="44.45708" lon="6.2929">
        <ele>979.795254</ele>
        <time>2025-11-19T09:40:45.355Z</time>
      </trkpt>
      <trkpt lat="44.45708" lon="6.29303">
        <ele>979.795254</ele>
        <time>2025-11-19T09:40:53.361Z</time>
      </trkpt>
      <trkpt lat="44.45701" lon="6.29313">
        <ele>979.795254</ele>
        <time>2025-11-19T09:41:01.362Z</time>
      </trkpt>
      <trkpt lat="44.45697" lon="6.29325">
        <ele>979.795254</ele>
        <time>2025-11-19T09:41:08.366Z</time>
      </trkpt>
      <trkpt lat="44.45692" lon="6.29336">
        <ele>980.093141</ele>
        <time>2025-11-19T09:41:16.354Z</time>
      </trkpt>
      <trkpt lat="44.45689" lon="6.29349">
        <ele>980.671048</ele>
        <time>2025-11-19T09:41:29.390Z</time>
      </trkpt>
      <trkpt lat="44.45685" lon="6.29362">
        <ele>981.230077</ele>
        <time>2025-11-19T09:41:37.373Z</time>
      </trkpt>
      <trkpt lat="44.45679" lon="6.29372">
        <ele>981.753517</ele>
        <time>2025-11-19T09:41:40.370Z</time>
      </trkpt>
      <trkpt lat="44.45673" lon="6.29382">
        <ele>982.304174</ele>
        <time>2025-11-19T09:41:50.359Z</time>
      </trkpt>
      <trkpt lat="44.4567" lon="6.29395">
        <ele>982.860873</ele>
        <time>2025-11-19T09:41:59.371Z</time>
      </trkpt>
      <trkpt lat="44.45665" lon="6.29406">
        <ele>983.386536</ele>
        <time>2025-11-19T09:42:06.386Z</time>
      </trkpt>
      <trkpt lat="44.4566" lon="6.29417">
        <ele>983.938062</ele>
        <time>2025-11-19T09:42:26.365Z</time>
      </trkpt>
      <trkpt lat="44.45652" lon="6.29423">
        <ele>984.465549</ele>
        <time>2025-11-19T09:42:32.364Z</time>
      </trkpt>
      <trkpt lat="44.45644" lon="6.29428">
        <ele>984.989733</ele>
        <time>2025-11-19T09:42:38.348Z</time>
      </trkpt>
      <trkpt lat="44.45637" lon="6.29437">
        <ele>985.504917</ele>
        <time>2025-11-19T09:42:46.362Z</time>
      </trkpt>
      <trkpt lat="44.45629" lon="6.29444">
        <ele>986.063104</ele>
        <time>2025-11-19T09:42:53.377Z</time>
      </trkpt>
      <trkpt lat="44.45621" lon="6.29451">
        <ele>986.62973</ele>
        <time>2025-11-19T09:42:59.357Z</time>
      </trkpt>
      <trkpt lat="44.45614" lon="6.2946">
        <ele>987.158523</ele>
        <time>2025-11-19T09:43:08.362Z</time>
      </trkpt>
      <trkpt lat="44.45606" lon="6.29452">
        <ele>987.730953</ele>
        <time>2025-11-19T09:43:50.386Z</time>
      </trkpt>
      <trkpt lat="44.45597" lon="6.29448">
        <ele>988.285632</ele>
        <time>2025-11-19T09:43:57.358Z</time>
      </trkpt>
      <trkpt lat="44.45588" lon="6.29441">
        <ele>988.845133</ele>
        <time>2025-11-19T09:44:04.362Z</time>
      </trkpt>
      <trkpt lat="44.4558" lon="6.29436">
        <ele>989.36407</ele>
        <time>2025-11-19T09:44:14.354Z</time>
      </trkpt>
      <trkpt lat="44.45573" lon="6.29427">
        <ele>989.894112</ele>
        <time>2025-11-19T09:44:22.372Z</time>
      </trkpt>
      <trkpt lat="44.45565" lon="6.29421">
        <ele>990.659709</ele>
        <time>2025-11-19T09:44:30.397Z</time>
      </trkpt>
      <trkpt lat="44.45557" lon="6.29413">
        <ele>991.646259</ele>
        <time>2025-11-19T09:44:38.375Z</time>
      </trkpt>
      <trkpt lat="44.45548" lon="6.29407">
        <ele>992.617045</ele>
        <time>2025-11-19T09:44:47.386Z</time>
      </trkpt>
      <trkpt lat="44.4554" lon="6.29399">
        <ele>993.640879</ele>
        <time>2025-11-19T09:44:56.388Z</time>
      </trkpt>
      <trkpt lat="44.45531" lon="6.29391">
        <ele>994.644038</ele>
        <time>2025-11-19T09:45:04.373Z</time>
      </trkpt>
      <trkpt lat="44.45523" lon="6.29385">
        <ele>995.640514</ele>
        <time>2025-11-19T09:45:16.377Z</time>
      </trkpt>
      <trkpt lat="44.45518" lon="6.29373">
        <ele>996.594332</ele>
        <time>2025-11-19T09:45:27.412Z</time>
      </trkpt>
      <trkpt lat="44.45508" lon="6.29372">
        <ele>997.599687</ele>
        <time>2025-11-19T09:45:40.411Z</time>
      </trkpt>
      <trkpt lat="44.45499" lon="6.29369">
        <ele>998.56579</ele>
        <time>2025-11-19T09:45:49.387Z</time>
      </trkpt>
      <trkpt lat="44.45491" lon="6.29363">
        <ele>999.516729</ele>
        <time>2025-11-19T09:45:59.395Z</time>
      </trkpt>
      <trkpt lat="44.45482" lon="6.29357">
        <ele>1000.486856</ele>
        <time>2025-11-19T09:46:10.358Z</time>
      </trkpt>
      <trkpt lat="44.45474" lon="6.29351">
        <ele>1001.406436</ele>
        <time>2025-11-19T09:46:19.381Z</time>
      </trkpt>
      <trkpt lat="44.45466" lon="6.29343">
        <ele>1002.377782</ele>
        <time>2025-11-19T09:46:28.390Z</time>
      </trkpt>
      <trkpt lat="44.45458" lon="6.29335">
        <ele>1003.331945</ele>
        <time>2025-11-19T09:46:38.378Z</time>
      </trkpt>
      <trkpt lat="44.4545" lon="6.2933">
        <ele>1004.266526</ele>
        <time>2025-11-19T09:46:46.394Z</time>
      </trkpt>
      <trkpt lat="44.45441" lon="6.29325">
        <ele>1005.230538</ele>
        <time>2025-11-19T09:46:57.394Z</time>
      </trkpt>
      <trkpt lat="44.45424" lon="6.29326">
        <ele>1006.92805</ele>
        <time>2025-11-19T09:47:39.365Z</time>
      </trkpt>
      <trkpt lat="44.45416" lon="6.29332">
        <ele>1007.854501</ele>
        <time>2025-11-19T09:47:47.376Z</time>
      </trkpt>
      <trkpt lat="44.45407" lon="6.29337">
        <ele>1008.722513</ele>
        <time>2025-11-19T09:47:57.363Z</time>
      </trkpt>
      <trkpt lat="44.45399" lon="6.29344">
        <ele>1009.552731</ele>
        <time>2025-11-19T09:48:05.355Z</time>
      </trkpt>
      <trkpt lat="44.45392" lon="6.29353">
        <ele>1010.38378</ele>
        <time>2025-11-19T09:48:15.376Z</time>
      </trkpt>
      <trkpt lat="44.45384" lon="6.2936">
        <ele>1011.180307</ele>
        <time>2025-11-19T09:48:25.365Z</time>
      </trkpt>
      <trkpt lat="44.45375" lon="6.29366">
        <ele>1012.048586</ele>
        <time>2025-11-19T09:48:34.363Z</time>
      </trkpt>
      <trkpt lat="44.45365" lon="6.2937">
        <ele>1012.938069</ele>
        <time>2025-11-19T09:48:42.368Z</time>
      </trkpt>
      <trkpt lat="44.45358" lon="6.29378">
        <ele>1013.72378</ele>
        <time>2025-11-19T09:48:52.363Z</time>
      </trkpt>
      <trkpt lat="44.45349" lon="6.29383">
        <ele>1014.525938</ele>
        <time>2025-11-19T09:49:01.367Z</time>
      </trkpt>
      <trkpt lat="44.45341" lon="6.29391">
        <ele>1015.405171</ele>
        <time>2025-11-19T09:49:09.362Z</time>
      </trkpt>
      <trkpt lat="44.45332" lon="6.29394">
        <ele>1016.210924</ele>
        <time>2025-11-19T09:49:18.373Z</time>
      </trkpt>
      <trkpt lat="44.45323" lon="6.29393">
        <ele>1017.004232</ele>
        <time>2025-11-19T09:49:25.382Z</time>
      </trkpt>
      <trkpt lat="44.45314" lon="6.29396">
        <ele>1017.818813</ele>
        <time>2025-11-19T09:49:34.377Z</time>
      </trkpt>
      <trkpt lat="44.45304" lon="6.29406">
        <ele>1018.894217</ele>
        <time>2025-11-19T09:50:13.373Z</time>
      </trkpt>
      <trkpt lat="44.45295" lon="6.2941">
        <ele>1019.720031</ele>
        <time>2025-11-19T09:50:26.353Z</time>
      </trkpt>
      <trkpt lat="44.45286" lon="6.29412">
        <ele>1020.511929</ele>
        <time>2025-11-19T09:50:34.354Z</time>
      </trkpt>
      <trkpt lat="44.45277" lon="6.29417">
        <ele>1021.347759</ele>
        <time>2025-11-19T09:50:41.356Z</time>
      </trkpt>
      <trkpt lat="44.45267" lon="6.29419">
        <ele>1022.198721</ele>
        <time>2025-11-19T09:50:47.356Z</time>
      </trkpt>
      <trkpt lat="44.45258" lon="6.29423">
        <ele>1023.005609</ele>
        <time>2025-11-19T09:50:56.368Z</time>
      </trkpt>
      <trkpt lat="44.45255" lon="6.29437">
        <ele>1024.020811</ele>
        <time>2025-11-19T09:51:07.376Z</time>
      </trkpt>
      <trkpt lat="44.45255" lon="6.2945">
        <ele>1025.502567</ele>
        <time>2025-11-19T09:51:27.350Z</time>
      </trkpt>
      <trkpt lat="44.45248" lon="6.29459">
        <ele>1026.947162</ele>
        <time>2025-11-19T09:51:41.372Z</time>
      </trkpt>
      <trkpt lat="44.45239" lon="6.29461">
        <ele>1028.363161</ele>
        <time>2025-11-19T09:51:52.370Z</time>
      </trkpt>
      <trkpt lat="44.4523" lon="6.29463">
        <ele>1029.89682</ele>
        <time>2025-11-19T09:52:09.369Z</time>
      </trkpt>
      <trkpt lat="44.4522" lon="6.29467">
        <ele>1031.472495</ele>
        <time>2025-11-19T09:52:19.374Z</time>
      </trkpt>
      <trkpt lat="44.45211" lon="6.2947">
        <ele>1032.926613</ele>
        <time>2025-11-19T09:52:30.372Z</time>
      </trkpt>
      <trkpt lat="44.45201" lon="6.2947">
        <ele>1034.440428</ele>
        <time>2025-11-19T09:52:41.387Z</time>
      </trkpt>
      <trkpt lat="44.45192" lon="6.29467">
        <ele>1035.90907</ele>
        <time>2025-11-19T09:52:50.356Z</time>
      </trkpt>
      <trkpt lat="44.45167" lon="6.29449">
        <ele>1040.358429</ele>
        <time>2025-11-19T09:53:35.406Z</time>
      </trkpt>
      <trkpt lat="44.45158" lon="6.29447">
        <ele>1041.800911</ele>
        <time>2025-11-19T09:53:43.376Z</time>
      </trkpt>
      <trkpt lat="44.45149" lon="6.29453">
        <ele>1043.252094</ele>
        <time>2025-11-19T09:53:55.368Z</time>
      </trkpt>
      <trkpt lat="44.45141" lon="6.2946">
        <ele>1044.740801</ele>
        <time>2025-11-19T09:54:05.397Z</time>
      </trkpt>
      <trkpt lat="44.45135" lon="6.29469">
        <ele>1046.169875</ele>
        <time>2025-11-19T09:54:17.390Z</time>
      </trkpt>
      <trkpt lat="44.45127" lon="6.29475">
        <ele>1047.574402</ele>
        <time>2025-11-19T09:54:26.401Z</time>
      </trkpt>
      <trkpt lat="44.4512" lon="6.29485">
        <ele>1049.110357</ele>
        <time>2025-11-19T09:54:39.370Z</time>
      </trkpt>
      <trkpt lat="44.45113" lon="6.29494">
        <ele>1050.543073</ele>
        <time>2025-11-19T09:54:50.392Z</time>
      </trkpt>
      <trkpt lat="44.45106" lon="6.29502">
        <ele>1051.99292</ele>
        <time>2025-11-19T09:55:00.371Z</time>
      </trkpt>
      <trkpt lat="44.45102" lon="6.29514">
        <ele>1053.477185</ele>
        <time>2025-11-19T09:55:13.401Z</time>
      </trkpt>
      <trkpt lat="44.45098" lon="6.29502">
        <ele>1055.035973</ele>
        <time>2025-11-19T09:55:45.379Z</time>
      </trkpt>
      <trkpt lat="44.451" lon="6.29489">
        <ele>1056.561713</ele>
        <time>2025-11-19T09:55:56.362Z</time>
      </trkpt>
      <trkpt lat="44.45094" lon="6.29479">
        <ele>1058.068692</ele>
        <time>2025-11-19T09:56:09.369Z</time>
      </trkpt>
      <trkpt lat="44.45092" lon="6.29466">
        <ele>1059.620449</ele>
        <time>2025-11-19T09:56:22.374Z</time>
      </trkpt>
      <trkpt lat="44.45085" lon="6.29459">
        <ele>1061.095671</ele>
        <time>2025-11-19T09:56:33.376Z</time>
      </trkpt>
      <trkpt lat="44.45077" lon="6.29454">
        <ele>1062.601462</ele>
        <time>2025-11-19T09:56:55.398Z</time>
      </trkpt>
      <trkpt lat="44.45068" lon="6.29456">
        <ele>1064.092185</ele>
        <time>2025-11-19T09:57:19.405Z</time>
      </trkpt>
      <trkpt lat="44.45063" lon="6.29469">
        <ele>1065.852093</ele>
        <time>2025-11-19T09:57:35.388Z</time>
      </trkpt>
      <trkpt lat="44.45054" lon="6.29478">
        <ele>1067.502739</ele>
        <time>2025-11-19T09:57:51.393Z</time>
      </trkpt>
      <trkpt lat="44.45048" lon="6.29486">
        <ele>1069.014032</ele>
        <time>2025-11-19T09:58:13.386Z</time>
      </trkpt>
      <trkpt lat="44.4503" lon="6.29497">
        <ele>1072.213356</ele>
        <time>2025-11-19T09:59:40.397Z</time>
      </trkpt>
      <trkpt lat="44.45022" lon="6.29505">
        <ele>1073.776963</ele>
        <time>2025-11-19T09:59:57.372Z</time>
      </trkpt>
      <trkpt lat="44.45014" lon="6.29511">
        <ele>1075.262648</ele>
        <time>2025-11-19T10:00:07.396Z</time>
      </trkpt>
      <trkpt lat="44.45005" lon="6.29517">
        <ele>1076.916895</ele>
        <time>2025-11-19T10:00:21.379Z</time>
      </trkpt>
      <trkpt lat="44.44996" lon="6.29522">
        <ele>1078.496708</ele>
        <time>2025-11-19T10:00:32.370Z</time>
      </trkpt>
      <trkpt lat="44.44987" lon="6.29526">
        <ele>1080.128298</ele>
        <time>2025-11-19T10:00:43.405Z</time>
      </trkpt>
      <trkpt lat="44.44977" lon="6.2953">
        <ele>1081.947835</ele>
        <time>2025-11-19T10:00:59.378Z</time>
      </trkpt>
      <trkpt lat="44.44961" lon="6.29526">
        <ele>1086.526286</ele>
        <time>2025-11-19T10:03:11.416Z</time>
      </trkpt>
      <trkpt lat="44.44963" lon="6.29513">
        <ele>1089.090493</ele>
        <time>2025-11-19T10:03:29.377Z</time>
      </trkpt>
      <trkpt lat="44.44965" lon="6.295">
        <ele>1091.542244</ele>
        <time>2025-11-19T10:03:40.372Z</time>
      </trkpt>
      <trkpt lat="44.44969" lon="6.29489">
        <ele>1094.020866</ele>
        <time>2025-11-19T10:03:52.383Z</time>
      </trkpt>
      <trkpt lat="44.44973" lon="6.29477">
        <ele>1096.505234</ele>
        <time>2025-11-19T10:04:07.356Z</time>
      </trkpt>
      <trkpt lat="44.44981" lon="6.29452">
        <ele>1101.827104</ele>
        <time>2025-11-19T10:05:09.391Z</time>
      </trkpt>
      <trkpt lat="44.44984" lon="6.29439">
        <ele>1104.418327</ele>
        <time>2025-11-19T10:05:25.371Z</time>
      </trkpt>
      <trkpt lat="44.44988" lon="6.29428">
        <ele>1106.87365</ele>
        <time>2025-11-19T10:05:35.393Z</time>
      </trkpt>
      <trkpt lat="44.4499" lon="6.29415">
        <ele>1109.396313</ele>
        <time>2025-11-19T10:05:45.357Z</time>
      </trkpt>
      <trkpt lat="44.4499" lon="6.29403">
        <ele>1111.895762</ele>
        <time>2025-11-19T10:05:57.389Z</time>
      </trkpt>
      <trkpt lat="44.44985" lon="6.29392">
        <ele>1114.371832</ele>
        <time>2025-11-19T10:06:24.410Z</time>
      </trkpt>
      <trkpt lat="44.44976" lon="6.29395">
        <ele>1116.866004</ele>
        <time>2025-11-19T10:06:42.387Z</time>
      </trkpt>
      <trkpt lat="44.4497" lon="6.29405">
        <ele>1119.379675</ele>
        <time>2025-11-19T10:06:55.381Z</time>
      </trkpt>
      <trkpt lat="44.44961" lon="6.29401">
        <ele>1121.836466</ele>
        <time>2025-11-19T10:07:08.365Z</time>
      </trkpt>
      <trkpt lat="44.44952" lon="6.29404">
        <ele>1124.343026</ele>
        <time>2025-11-19T10:07:32.390Z</time>
      </trkpt>
      <trkpt lat="44.44941" lon="6.29404">
        <ele>1127.274604</ele>
        <time>2025-11-19T10:07:55.388Z</time>
      </trkpt>
      <trkpt lat="44.44932" lon="6.29406">
        <ele>1129.80459</ele>
        <time>2025-11-19T10:08:08.385Z</time>
      </trkpt>
      <trkpt lat="44.44923" lon="6.29411">
        <ele>1132.674245</ele>
        <time>2025-11-19T10:08:22.385Z</time>
      </trkpt>
      <trkpt lat="44.44916" lon="6.29418">
        <ele>1135.685916</ele>
        <time>2025-11-19T10:08:33.361Z</time>
      </trkpt>
      <trkpt lat="44.44898" lon="6.29399">
        <ele>1142.896946</ele>
        <time>2025-11-19T10:10:04.401Z</time>
      </trkpt>
      <trkpt lat="44.44893" lon="6.29387">
        <ele>1145.839747</ele>
        <time>2025-11-19T10:10:24.364Z</time>
      </trkpt>
      <trkpt lat="44.44886" lon="6.29378">
        <ele>1149.051413</ele>
        <time>2025-11-19T10:10:41.374Z</time>
      </trkpt>
      <trkpt lat="44.44878" lon="6.29369">
        <ele>1152.194474</ele>
        <time>2025-11-19T10:10:56.358Z</time>
      </trkpt>
      <trkpt lat="44.4487" lon="6.29362">
        <ele>1155.127598</ele>
        <time>2025-11-19T10:11:12.405Z</time>
      </trkpt>
      <trkpt lat="44.44861" lon="6.29358">
        <ele>1158.156897</ele>
        <time>2025-11-19T10:11:37.383Z</time>
      </trkpt>
      <trkpt lat="44.44852" lon="6.29354">
        <ele>1161.092552</ele>
        <time>2025-11-19T10:11:53.403Z</time>
      </trkpt>
      <trkpt lat="44.44842" lon="6.29353">
        <ele>1164.34271</ele>
        <time>2025-11-19T10:12:14.400Z</time>
      </trkpt>
      <trkpt lat="44.44833" lon="6.29349">
        <ele>1167.200434</ele>
        <time>2025-11-19T10:12:48.419Z</time>
      </trkpt>
      <trkpt lat="44.4483" lon="6.29336">
        <ele>1170.282674</ele>
        <time>2025-11-19T10:13:05.390Z</time>
      </trkpt>
      <trkpt lat="44.44828" lon="6.29324">
        <ele>1173.145339</ele>
        <time>2025-11-19T10:13:19.397Z</time>
      </trkpt>
      <trkpt lat="44.44819" lon="6.29319">
        <ele>1176.121915</ele>
        <time>2025-11-19T10:13:32.387Z</time>
      </trkpt>
      <trkpt lat="44.44812" lon="6.2931">
        <ele>1179.079062</ele>
        <time>2025-11-19T10:13:43.405Z</time>
      </trkpt>
      <trkpt lat="44.44804" lon="6.29303">
        <ele>1182.116129</ele>
        <time>2025-11-19T10:14:01.420Z</time>
      </trkpt>
      <trkpt lat="44.448" lon="6.29291">
        <ele>1184.958223</ele>
        <time>2025-11-19T10:14:12.373Z</time>
      </trkpt>
      <trkpt lat="44.44797" lon="6.29279">
        <ele>1187.793451</ele>
        <time>2025-11-19T10:14:26.396Z</time>
      </trkpt>
      <trkpt lat="44.44799" lon="6.29267">
        <ele>1190.00428</ele>
        <time>2025-11-19T10:14:37.400Z</time>
      </trkpt>
      <trkpt lat="44.44796" lon="6.29254">
        <ele>1192.39027</ele>
        <time>2025-11-19T10:14:47.380Z</time>
      </trkpt>
      <trkpt lat="44.44792" lon="6.29242">
        <ele>1194.616082</ele>
        <time>2025-11-19T10:15:00.406Z</time>
      </trkpt>
      <trkpt lat="44.4479" lon="6.2923">
        <ele>1196.833541</ele>
        <time>2025-11-19T10:15:14.378Z</time>
      </trkpt>
      <trkpt lat="44.4479" lon="6.29217">
        <ele>1199.15762</ele>
        <time>2025-11-19T10:15:25.408Z</time>
      </trkpt>
      <trkpt lat="44.44791" lon="6.29204">
        <ele>1201.496726</ele>
        <time>2025-11-19T10:15:41.387Z</time>
      </trkpt>
      <trkpt lat="44.44788" lon="6.29191">
        <ele>1203.815119</ele>
        <time>2025-11-19T10:15:53.383Z</time>
      </trkpt>
      <trkpt lat="44.44789" lon="6.29178">
        <ele>1206.10217</ele>
        <time>2025-11-19T10:16:07.375Z</time>
      </trkpt>
      <trkpt lat="44.44789" lon="6.29164">
        <ele>1208.460801</ele>
        <time>2025-11-19T10:16:17.392Z</time>
      </trkpt>
      <trkpt lat="44.44788" lon="6.29152">
        <ele>1210.688576</ele>
        <time>2025-11-19T10:16:32.403Z</time>
      </trkpt>
      <trkpt lat="44.44779" lon="6.29147">
        <ele>1213.097272</ele>
        <time>2025-11-19T10:16:52.390Z</time>
      </trkpt>
      <trkpt lat="44.4477" lon="6.29151">
        <ele>1215.395576</ele>
        <time>2025-11-19T10:17:00.377Z</time>
      </trkpt>
      <trkpt lat="44.44745" lon="6.29166">
        <ele>1221.982474</ele>
        <time>2025-11-19T10:19:12.403Z</time>
      </trkpt>
      <trkpt lat="44.44741" lon="6.29178">
        <ele>1224.306672</ele>
        <time>2025-11-19T10:19:31.406Z</time>
      </trkpt>
      <trkpt lat="44.44735" lon="6.29191">
        <ele>1226.909301</ele>
        <time>2025-11-19T10:19:46.386Z</time>
      </trkpt>
      <trkpt lat="44.44729" lon="6.29202">
        <ele>1229.341714</ele>
        <time>2025-11-19T10:19:56.398Z</time>
      </trkpt>
      <trkpt lat="44.44724" lon="6.29213">
        <ele>1231.525507</ele>
        <time>2025-11-19T10:20:12.384Z</time>
      </trkpt>
      <trkpt lat="44.4472" lon="6.29224">
        <ele>1233.080517</ele>
        <time>2025-11-19T10:20:24.410Z</time>
      </trkpt>
      <trkpt lat="44.44716" lon="6.29238">
        <ele>1234.924404</ele>
        <time>2025-11-19T10:20:34.396Z</time>
      </trkpt>
      <trkpt lat="44.44709" lon="6.29266">
        <ele>1238.638752</ele>
        <time>2025-11-19T10:22:40.362Z</time>
      </trkpt>
      <trkpt lat="44.44702" lon="6.29276">
        <ele>1240.293271</ele>
        <time>2025-11-19T10:22:52.380Z</time>
      </trkpt>
      <trkpt lat="44.44702" lon="6.2929">
        <ele>1242.010129</ele>
        <time>2025-11-19T10:23:02.386Z</time>
      </trkpt>
      <trkpt lat="44.44698" lon="6.29302">
        <ele>1243.56893</ele>
        <time>2025-11-19T10:23:15.393Z</time>
      </trkpt>
      <trkpt lat="44.44693" lon="6.29313">
        <ele>1245.184773</ele>
        <time>2025-11-19T10:23:23.367Z</time>
      </trkpt>
      <trkpt lat="44.44686" lon="6.29322">
        <ele>1246.75483</ele>
        <time>2025-11-19T10:23:31.355Z</time>
      </trkpt>
      <trkpt lat="44.44679" lon="6.29329">
        <ele>1248.315687</ele>
        <time>2025-11-19T10:23:46.385Z</time>
      </trkpt>
      <trkpt lat="44.4467" lon="6.2933">
        <ele>1249.953025</ele>
        <time>2025-11-19T10:24:05.367Z</time>
      </trkpt>
      <trkpt lat="44.44662" lon="6.29322">
        <ele>1251.612272</ele>
        <time>2025-11-19T10:24:23.372Z</time>
      </trkpt>
      <trkpt lat="44.44656" lon="6.29311">
        <ele>1253.254197</ele>
        <time>2025-11-19T10:24:35.377Z</time>
      </trkpt>
      <trkpt lat="44.44652" lon="6.293">
        <ele>1254.822373</ele>
        <time>2025-11-19T10:24:46.383Z</time>
      </trkpt>
      <trkpt lat="44.44646" lon="6.29288">
        <ele>1256.495845</ele>
        <time>2025-11-19T10:25:00.379Z</time>
      </trkpt>
      <trkpt lat="44.44642" lon="6.29277">
        <ele>1258.088082</ele>
        <time>2025-11-19T10:25:15.390Z</time>
      </trkpt>
      <trkpt lat="44.44638" lon="6.29265">
        <ele>1259.71002</ele>
        <time>2025-11-19T10:25:27.387Z</time>
      </trkpt>
      <trkpt lat="44.44635" lon="6.29252">
        <ele>1261.418848</ele>
        <time>2025-11-19T10:25:40.361Z</time>
      </trkpt>
      <trkpt lat="44.44628" lon="6.29242">
        <ele>1263.065813</ele>
        <time>2025-11-19T10:25:50.405Z</time>
      </trkpt>
      <trkpt lat="44.44623" lon="6.2923">
        <ele>1264.66336</ele>
        <time>2025-11-19T10:26:01.383Z</time>
      </trkpt>
      <trkpt lat="44.44618" lon="6.29217">
        <ele>1266.384295</ele>
        <time>2025-11-19T10:26:17.363Z</time>
      </trkpt>
      <trkpt lat="44.44618" lon="6.29204">
        <ele>1267.952847</ele>
        <time>2025-11-19T10:26:29.362Z</time>
      </trkpt>
      <trkpt lat="44.44614" lon="6.29192">
        <ele>1269.473595</ele>
        <time>2025-11-19T10:26:38.364Z</time>
      </trkpt>
      <trkpt lat="44.44614" lon="6.29179">
        <ele>1270.994301</ele>
        <time>2025-11-19T10:26:49.406Z</time>
      </trkpt>
      <trkpt lat="44.44614" lon="6.29165">
        <ele>1272.667005</ele>
        <time>2025-11-19T10:27:01.369Z</time>
      </trkpt>
      <trkpt lat="44.44611" lon="6.29153">
        <ele>1274.146039</ele>
        <time>2025-11-19T10:27:15.411Z</time>
      </trkpt>
      <trkpt lat="44.44603" lon="6.29144">
        <ele>1275.856213</ele>
        <time>2025-11-19T10:27:23.371Z</time>
      </trkpt>
      <trkpt lat="44.44596" lon="6.29136">
        <ele>1277.370865</ele>
        <time>2025-11-19T10:27:36.420Z</time>
      </trkpt>
      <trkpt lat="44.44587" lon="6.29132">
        <ele>1278.900824</ele>
        <time>2025-11-19T10:27:48.368Z</time>
      </trkpt>
      <trkpt lat="44.44578" lon="6.29134">
        <ele>1280.501952</ele>
        <time>2025-11-19T10:27:59.387Z</time>
      </trkpt>
      <trkpt lat="44.44567" lon="6.29138">
        <ele>1282.262123</ele>
        <time>2025-11-19T10:28:11.395Z</time>
      </trkpt>
      <trkpt lat="44.44559" lon="6.29144">
        <ele>1283.822296</ele>
        <time>2025-11-19T10:28:22.362Z</time>
      </trkpt>
      <trkpt lat="44.44551" lon="6.29152">
        <ele>1285.39669</ele>
        <time>2025-11-19T10:28:31.358Z</time>
      </trkpt>
      <trkpt lat="44.44543" lon="6.29161">
        <ele>1287.036119</ele>
        <time>2025-11-19T10:28:40.393Z</time>
      </trkpt>
      <trkpt lat="44.44538" lon="6.29171">
        <ele>1288.570307</ele>
        <time>2025-11-19T10:28:49.399Z</time>
      </trkpt>
      <trkpt lat="44.44533" lon="6.29184">
        <ele>1290.229597</ele>
        <time>2025-11-19T10:28:58.382Z</time>
      </trkpt>
      <trkpt lat="44.44529" lon="6.29195">
        <ele>1291.739699</ele>
        <time>2025-11-19T10:29:07.375Z</time>
      </trkpt>
      <trkpt lat="44.44525" lon="6.29207">
        <ele>1292.2962</ele>
        <time>2025-11-19T10:29:16.371Z</time>
      </trkpt>
      <trkpt lat="44.44518" lon="6.29216">
        <ele>1292.710773</ele>
        <time>2025-11-19T10:29:28.407Z</time>
      </trkpt>
      <trkpt lat="44.44507" lon="6.2923">
        <ele>1293.396997</ele>
        <time>2025-11-19T10:32:58.403Z</time>
      </trkpt>
      <trkpt lat="44.445" lon="6.29239">
        <ele>1293.842983</ele>
        <time>2025-11-19T10:33:07.375Z</time>
      </trkpt>
      <trkpt lat="44.44494" lon="6.29248">
        <ele>1294.252856</ele>
        <time>2025-11-19T10:33:19.404Z</time>
      </trkpt>
      <trkpt lat="44.44485" lon="6.29252">
        <ele>1294.67155</ele>
        <time>2025-11-19T10:33:27.380Z</time>
      </trkpt>
      <trkpt lat="44.44476" lon="6.29257">
        <ele>1295.121608</ele>
        <time>2025-11-19T10:33:37.391Z</time>
      </trkpt>
      <trkpt lat="44.44467" lon="6.29262">
        <ele>1295.560911</ele>
        <time>2025-11-19T10:33:47.381Z</time>
      </trkpt>
      <trkpt lat="44.44457" lon="6.29265">
        <ele>1296.004815</ele>
        <time>2025-11-19T10:33:57.407Z</time>
      </trkpt>
      <trkpt lat="44.44448" lon="6.29268">
        <ele>1296.43021</ele>
        <time>2025-11-19T10:34:07.396Z</time>
      </trkpt>
      <trkpt lat="44.44439" lon="6.29274">
        <ele>1296.909569</ele>
        <time>2025-11-19T10:34:18.369Z</time>
      </trkpt>
      <trkpt lat="44.4443" lon="6.29278">
        <ele>1297.327859</ele>
        <time>2025-11-19T10:34:30.409Z</time>
      </trkpt>
      <trkpt lat="44.44421" lon="6.29278">
        <ele>1297.757988</ele>
        <time>2025-11-19T10:34:44.384Z</time>
      </trkpt>
      <trkpt lat="44.44411" lon="6.29279">
        <ele>1298.197546</ele>
        <time>2025-11-19T10:34:56.415Z</time>
      </trkpt>
      <trkpt lat="44.44402" lon="6.29284">
        <ele>1298.617327</ele>
        <time>2025-11-19T10:35:04.390Z</time>
      </trkpt>
      <trkpt lat="44.44394" lon="6.2929">
        <ele>1299.042567</ele>
        <time>2025-11-19T10:35:15.379Z</time>
      </trkpt>
      <trkpt lat="44.44386" lon="6.293">
        <ele>1299.523871</ele>
        <time>2025-11-19T10:35:23.374Z</time>
      </trkpt>
      <trkpt lat="44.4438" lon="6.2931">
        <ele>1299.960375</ele>
        <time>2025-11-19T10:35:30.382Z</time>
      </trkpt>
      <trkpt lat="44.44377" lon="6.29322">
        <ele>1300.314048</ele>
        <time>2025-11-19T10:35:38.399Z</time>
      </trkpt>
      <trkpt lat="44.44372" lon="6.29334">
        <ele>1300.6455</ele>
        <time>2025-11-19T10:35:47.384Z</time>
      </trkpt>
      <trkpt lat="44.44365" lon="6.29343">
        <ele>1300.970106</ele>
        <time>2025-11-19T10:35:56.386Z</time>
      </trkpt>
      <trkpt lat="44.44359" lon="6.29353">
        <ele>1301.288036</ele>
        <time>2025-11-19T10:36:07.389Z</time>
      </trkpt>
      <trkpt lat="44.4435" lon="6.29356">
        <ele>1301.624929</ele>
        <time>2025-11-19T10:36:16.373Z</time>
      </trkpt>
      <trkpt lat="44.44341" lon="6.29361">
        <ele>1301.936354</ele>
        <time>2025-11-19T10:36:30.378Z</time>
      </trkpt>
      <trkpt lat="44.44332" lon="6.29361">
        <ele>1302.251699</ele>
        <time>2025-11-19T10:36:39.370Z</time>
      </trkpt>
      <trkpt lat="44.44322" lon="6.29366">
        <ele>1302.618605</ele>
        <time>2025-11-19T10:36:51.383Z</time>
      </trkpt>
      <trkpt lat="44.44313" lon="6.29368">
        <ele>1302.944633</ele>
        <time>2025-11-19T10:36:59.369Z</time>
      </trkpt>
      <trkpt lat="44.44303" lon="6.29372">
        <ele>1303.2844</ele>
        <time>2025-11-19T10:37:07.386Z</time>
      </trkpt>
      <trkpt lat="44.44294" lon="6.29375">
        <ele>1303.620852</ele>
        <time>2025-11-19T10:37:17.396Z</time>
      </trkpt>
      <trkpt lat="44.44283" lon="6.29378">
        <ele>1303.976858</ele>
        <time>2025-11-19T10:37:27.382Z</time>
      </trkpt>
      <trkpt lat="44.44274" lon="6.29382">
        <ele>1304.301775</ele>
        <time>2025-11-19T10:37:36.388Z</time>
      </trkpt>
      <trkpt lat="44.44265" lon="6.29383">
        <ele>1304.627388</ele>
        <time>2025-11-19T10:37:44.397Z</time>
      </trkpt>
      <trkpt lat="44.44256" lon="6.29391">
        <ele>1304.979513</ele>
        <time>2025-11-19T10:37:51.388Z</time>
      </trkpt>
      <trkpt lat="44.44247" lon="6.29393">
        <ele>1305.297615</ele>
        <time>2025-11-19T10:38:00.366Z</time>
      </trkpt>
      <trkpt lat="44.44238" lon="6.29393">
        <ele>1305.619573</ele>
        <time>2025-11-19T10:38:06.391Z</time>
      </trkpt>
      <trkpt lat="44.44229" lon="6.29398">
        <ele>1305.954255</ele>
        <time>2025-11-19T10:38:14.361Z</time>
      </trkpt>
      <trkpt lat="44.4422" lon="6.29403">
        <ele>1306.322458</ele>
        <time>2025-11-19T10:38:23.414Z</time>
      </trkpt>
      <trkpt lat="44.4421" lon="6.29407">
        <ele>1307.852873</ele>
        <time>2025-11-19T10:38:33.392Z</time>
      </trkpt>
      <trkpt lat="44.44202" lon="6.29412">
        <ele>1309.351108</ele>
        <time>2025-11-19T10:38:47.395Z</time>
      </trkpt>
      <trkpt lat="44.44193" lon="6.29417">
        <ele>1310.826456</ele>
        <time>2025-11-19T10:38:55.391Z</time>
      </trkpt>
      <trkpt lat="44.44185" lon="6.29424">
        <ele>1312.322613</ele>
        <time>2025-11-19T10:39:04.383Z</time>
      </trkpt>
      <trkpt lat="44.44177" lon="6.29432">
        <ele>1313.838152</ele>
        <time>2025-11-19T10:39:16.381Z</time>
      </trkpt>
      <trkpt lat="44.44175" lon="6.29396">
        <ele>1317.837902</ele>
        <time>2025-11-19T10:40:37.389Z</time>
      </trkpt>
      <trkpt lat="44.44177" lon="6.29383">
        <ele>1319.323516</ele>
        <time>2025-11-19T10:40:51.391Z</time>
      </trkpt>
      <trkpt lat="44.44176" lon="6.29371">
        <ele>1320.789172</ele>
        <time>2025-11-19T10:41:00.397Z</time>
      </trkpt>
      <trkpt lat="44.44175" lon="6.29357">
        <ele>1322.312559</ele>
        <time>2025-11-19T10:41:08.402Z</time>
      </trkpt>
      <trkpt lat="44.44176" lon="6.29344">
        <ele>1323.74637</ele>
        <time>2025-11-19T10:41:17.397Z</time>
      </trkpt>
      <trkpt lat="44.44176" lon="6.29331">
        <ele>1325.294481</ele>
        <time>2025-11-19T10:41:27.381Z</time>
      </trkpt>
      <trkpt lat="44.4418" lon="6.29319">
        <ele>1326.714867</ele>
        <time>2025-11-19T10:41:40.404Z</time>
      </trkpt>
      <trkpt lat="44.44184" lon="6.29307">
        <ele>1328.230676</ele>
        <time>2025-11-19T10:41:51.394Z</time>
      </trkpt>
      <trkpt lat="44.44185" lon="6.29294">
        <ele>1329.705414</ele>
        <time>2025-11-19T10:42:04.358Z</time>
      </trkpt>
      <trkpt lat="44.44185" lon="6.2928">
        <ele>1331.217525</ele>
        <time>2025-11-19T10:42:25.396Z</time>
      </trkpt>
      <trkpt lat="44.44192" lon="6.29271">
        <ele>1332.664851</ele>
        <time>2025-11-19T10:42:34.395Z</time>
      </trkpt>
      <trkpt lat="44.44197" lon="6.29261">
        <ele>1334.108096</ele>
        <time>2025-11-19T10:42:44.379Z</time>
      </trkpt>
      <trkpt lat="44.44206" lon="6.29249">
        <ele>1335.820144</ele>
        <time>2025-11-19T10:42:58.356Z</time>
      </trkpt>
      <trkpt lat="44.44213" lon="6.29242">
        <ele>1337.075289</ele>
        <time>2025-11-19T10:43:09.390Z</time>
      </trkpt>
      <trkpt lat="44.44222" lon="6.29234">
        <ele>1338.490632</ele>
        <time>2025-11-19T10:43:19.418Z</time>
      </trkpt>
      <trkpt lat="44.44231" lon="6.29231">
        <ele>1339.784361</ele>
        <time>2025-11-19T10:43:28.374Z</time>
      </trkpt>
      <trkpt lat="44.44223" lon="6.29224">
        <ele>1341.083629</ele>
        <time>2025-11-19T10:44:02.391Z</time>
      </trkpt>
      <trkpt lat="44.44217" lon="6.29214">
        <ele>1342.353121</ele>
        <time>2025-11-19T10:44:20.390Z</time>
      </trkpt>
      <trkpt lat="44.44218" lon="6.29201">
        <ele>1343.595695</ele>
        <time>2025-11-19T10:44:32.374Z</time>
      </trkpt>
      <trkpt lat="44.44217" lon="6.29188">
        <ele>1344.840883</ele>
        <time>2025-11-19T10:44:41.398Z</time>
      </trkpt>
      <trkpt lat="44.44217" lon="6.29175">
        <ele>1346.088391</ele>
        <time>2025-11-19T10:44:52.397Z</time>
      </trkpt>
      <trkpt lat="44.44217" lon="6.29162">
        <ele>1347.358582</ele>
        <time>2025-11-19T10:45:02.394Z</time>
      </trkpt>
      <trkpt lat="44.44213" lon="6.2915">
        <ele>1348.657167</ele>
        <time>2025-11-19T10:45:17.394Z</time>
      </trkpt>
      <trkpt lat="44.44215" lon="6.29137">
        <ele>1349.88085</ele>
        <time>2025-11-19T10:45:31.393Z</time>
      </trkpt>
      <trkpt lat="44.44218" lon="6.29126">
        <ele>1351.112255</ele>
        <time>2025-11-19T10:45:43.373Z</time>
      </trkpt>
      <trkpt lat="44.44217" lon="6.29113">
        <ele>1352.35221</ele>
        <time>2025-11-19T10:45:52.407Z</time>
      </trkpt>
      <trkpt lat="44.44219" lon="6.291">
        <ele>1353.609597</ele>
        <time>2025-11-19T10:46:02.387Z</time>
      </trkpt>
      <trkpt lat="44.44223" lon="6.29088">
        <ele>1354.935878</ele>
        <time>2025-11-19T10:46:10.411Z</time>
      </trkpt>
      <trkpt lat="44.44226" lon="6.29075">
        <ele>1356.244315</ele>
        <time>2025-11-19T10:46:24.396Z</time>
      </trkpt>
      <trkpt lat="44.44229" lon="6.29063">
        <ele>1357.474055</ele>
        <time>2025-11-19T10:46:34.404Z</time>
      </trkpt>
      <trkpt lat="44.44233" lon="6.29052">
        <ele>1358.69738</ele>
        <time>2025-11-19T10:46:44.402Z</time>
      </trkpt>
      <trkpt lat="44.44234" lon="6.29038">
        <ele>1360.086237</ele>
        <time>2025-11-19T10:46:56.391Z</time>
      </trkpt>
      <trkpt lat="44.44229" lon="6.29026">
        <ele>1361.521732</ele>
        <time>2025-11-19T10:47:07.391Z</time>
      </trkpt>
      <trkpt lat="44.44222" lon="6.29016">
        <ele>1362.914723</ele>
        <time>2025-11-19T10:47:18.390Z</time>
      </trkpt>
      <trkpt lat="44.44214" lon="6.2901">
        <ele>1364.329356</ele>
        <time>2025-11-19T10:47:33.373Z</time>
      </trkpt>
      <trkpt lat="44.44205" lon="6.29011">
        <ele>1365.696635</ele>
        <time>2025-11-19T10:47:48.376Z</time>
      </trkpt>
      <trkpt lat="44.44195" lon="6.29012">
        <ele>1367.024414</ele>
        <time>2025-11-19T10:47:59.387Z</time>
      </trkpt>
      <trkpt lat="44.44188" lon="6.29019">
        <ele>1368.355818</ele>
        <time>2025-11-19T10:48:08.375Z</time>
      </trkpt>
      <trkpt lat="44.44178" lon="6.29024">
        <ele>1369.882186</ele>
        <time>2025-11-19T10:48:19.402Z</time>
      </trkpt>
      <trkpt lat="44.4417" lon="6.29029">
        <ele>1371.192618</ele>
        <time>2025-11-19T10:48:28.373Z</time>
      </trkpt>
      <trkpt lat="44.4416" lon="6.29031">
        <ele>1372.587529</ele>
        <time>2025-11-19T10:48:46.372Z</time>
      </trkpt>
      <trkpt lat="44.44151" lon="6.29036">
        <ele>1374.022584</ele>
        <time>2025-11-19T10:48:55.377Z</time>
      </trkpt>
      <trkpt lat="44.44144" lon="6.29045">
        <ele>1375.333704</ele>
        <time>2025-11-19T10:49:06.388Z</time>
      </trkpt>
      <trkpt lat="44.44137" lon="6.29054">
        <ele>1376.761284</ele>
        <time>2025-11-19T10:49:18.398Z</time>
      </trkpt>
      <trkpt lat="44.4413" lon="6.29064">
        <ele>1378.184792</ele>
        <time>2025-11-19T10:49:28.373Z</time>
      </trkpt>
      <trkpt lat="44.44125" lon="6.29076">
        <ele>1379.559564</ele>
        <time>2025-11-19T10:49:37.386Z</time>
      </trkpt>
      <trkpt lat="44.44117" lon="6.29082">
        <ele>1380.921059</ele>
        <time>2025-11-19T10:49:45.392Z</time>
      </trkpt>
      <trkpt lat="44.44111" lon="6.29092">
        <ele>1382.297615</ele>
        <time>2025-11-19T10:49:53.389Z</time>
      </trkpt>
      <trkpt lat="44.44103" lon="6.291">
        <ele>1383.764826</ele>
        <time>2025-11-19T10:50:03.375Z</time>
      </trkpt>
      <trkpt lat="44.44095" lon="6.29109">
        <ele>1385.235334</ele>
        <time>2025-11-19T10:50:13.400Z</time>
      </trkpt>
      <trkpt lat="44.44087" lon="6.29114">
        <ele>1386.823605</ele>
        <time>2025-11-19T10:50:21.366Z</time>
      </trkpt>
      <trkpt lat="44.44078" lon="6.29122">
        <ele>1388.531372</ele>
        <time>2025-11-19T10:50:29.361Z</time>
      </trkpt>
      <trkpt lat="44.44071" lon="6.29131">
        <ele>1390.249625</ele>
        <time>2025-11-19T10:50:39.416Z</time>
      </trkpt>
      <trkpt lat="44.44063" lon="6.29136">
        <ele>1391.8114</ele>
        <time>2025-11-19T10:50:47.376Z</time>
      </trkpt>
      <trkpt lat="44.44054" lon="6.29141">
        <ele>1393.431116</ele>
        <time>2025-11-19T10:50:55.365Z</time>
      </trkpt>
      <trkpt lat="44.44044" lon="6.2914">
        <ele>1395.059332</ele>
        <time>2025-11-19T10:51:04.411Z</time>
      </trkpt>
      <trkpt lat="44.44038" lon="6.29131">
        <ele>1396.678004</ele>
        <time>2025-11-19T10:51:15.365Z</time>
      </trkpt>
      <trkpt lat="44.44029" lon="6.29124">
        <ele>1398.412099</ele>
        <time>2025-11-19T10:51:29.426Z</time>
      </trkpt>
      <trkpt lat="44.44025" lon="6.29112">
        <ele>1400.130045</ele>
        <time>2025-11-19T10:51:47.376Z</time>
      </trkpt>
      <trkpt lat="44.44022" lon="6.29098">
        <ele>1401.823478</ele>
        <time>2025-11-19T10:52:00.374Z</time>
      </trkpt>
      <trkpt lat="44.44025" lon="6.29086">
        <ele>1403.445948</ele>
        <time>2025-11-19T10:52:11.370Z</time>
      </trkpt>
      <trkpt lat="44.44029" lon="6.29074">
        <ele>1405.039653</ele>
        <time>2025-11-19T10:52:23.380Z</time>
      </trkpt>
      <trkpt lat="44.44036" lon="6.29067">
        <ele>1406.618744</ele>
        <time>2025-11-19T10:52:36.411Z</time>
      </trkpt>
      <trkpt lat="44.44041" lon="6.29055">
        <ele>1408.254138</ele>
        <time>2025-11-19T10:53:44.395Z</time>
      </trkpt>
      <trkpt lat="44.44042" lon="6.2904">
        <ele>1410.119386</ele>
        <time>2025-11-19T10:53:59.383Z</time>
      </trkpt>
      <trkpt lat="44.4404" lon="6.29027">
        <ele>1411.717714</ele>
        <time>2025-11-19T10:54:12.421Z</time>
      </trkpt>
      <trkpt lat="44.44034" lon="6.29003">
        <ele>1414.903181</ele>
        <time>2025-11-19T10:54:47.418Z</time>
      </trkpt>
      <trkpt lat="44.44029" lon="6.28992">
        <ele>1416.235728</ele>
        <time>2025-11-19T10:54:57.363Z</time>
      </trkpt>
      <trkpt lat="44.44022" lon="6.28983">
        <ele>1416.907611</ele>
        <time>2025-11-19T10:55:07.395Z</time>
      </trkpt>
      <trkpt lat="44.44013" lon="6.28982">
        <ele>1417.564143</ele>
        <time>2025-11-19T10:55:16.394Z</time>
      </trkpt>
      <trkpt lat="44.44004" lon="6.28981">
        <ele>1418.266296</ele>
        <time>2025-11-19T10:55:27.403Z</time>
      </trkpt>
      <trkpt lat="44.43994" lon="6.28979">
        <ele>1418.979343</ele>
        <time>2025-11-19T10:55:48.376Z</time>
      </trkpt>
      <trkpt lat="44.43991" lon="6.28991">
        <ele>1419.667591</ele>
        <time>2025-11-19T10:56:14.370Z</time>
      </trkpt>
      <trkpt lat="44.43982" lon="6.28992">
        <ele>1420.327427</ele>
        <time>2025-11-19T10:56:49.387Z</time>
      </trkpt>
      <trkpt lat="44.43973" lon="6.28986">
        <ele>1421.013378</ele>
        <time>2025-11-19T10:57:09.397Z</time>
      </trkpt>
      <trkpt lat="44.43966" lon="6.28978">
        <ele>1421.7125</ele>
        <time>2025-11-19T10:57:36.398Z</time>
      </trkpt>
      <trkpt lat="44.43956" lon="6.28978">
        <ele>1422.404133</ele>
        <time>2025-11-19T10:57:45.399Z</time>
      </trkpt>
      <trkpt lat="44.43947" lon="6.28979">
        <ele>1423.077849</ele>
        <time>2025-11-19T10:57:53.393Z</time>
      </trkpt>
      <trkpt lat="44.43938" lon="6.28977">
        <ele>1423.73178</ele>
        <time>2025-11-19T10:58:05.407Z</time>
      </trkpt>
      <trkpt lat="44.43929" lon="6.28973">
        <ele>1424.447002</ele>
        <time>2025-11-19T10:58:16.396Z</time>
      </trkpt>
      <trkpt lat="44.4392" lon="6.28977">
        <ele>1425.142425</ele>
        <time>2025-11-19T10:58:24.396Z</time>
      </trkpt>
      <trkpt lat="44.43911" lon="6.28982">
        <ele>1425.830702</ele>
        <time>2025-11-19T10:58:35.371Z</time>
      </trkpt>
      <trkpt lat="44.43904" lon="6.28991">
        <ele>1426.496271</ele>
        <time>2025-11-19T10:58:45.387Z</time>
      </trkpt>
      <trkpt lat="44.43895" lon="6.28993">
        <ele>1427.151024</ele>
        <time>2025-11-19T10:58:55.402Z</time>
      </trkpt>
      <trkpt lat="44.43886" lon="6.28995">
        <ele>1427.830945</ele>
        <time>2025-11-19T10:59:03.402Z</time>
      </trkpt>
      <trkpt lat="44.43877" lon="6.29">
        <ele>1428.545814</ele>
        <time>2025-11-19T10:59:12.375Z</time>
      </trkpt>
      <trkpt lat="44.43868" lon="6.29002">
        <ele>1429.320921</ele>
        <time>2025-11-19T10:59:20.364Z</time>
      </trkpt>
      <trkpt lat="44.43858" lon="6.29002">
        <ele>1430.652157</ele>
        <time>2025-11-19T10:59:30.401Z</time>
      </trkpt>
      <trkpt lat="44.43849" lon="6.28997">
        <ele>1431.87553</ele>
        <time>2025-11-19T10:59:43.405Z</time>
      </trkpt>
      <trkpt lat="44.4384" lon="6.28993">
        <ele>1433.21411</ele>
        <time>2025-11-19T10:59:52.375Z</time>
      </trkpt>
      <trkpt lat="44.4383" lon="6.28993">
        <ele>1434.439893</ele>
        <time>2025-11-19T11:00:02.390Z</time>
      </trkpt>
      <trkpt lat="44.43821" lon="6.28992">
        <ele>1435.720446</ele>
        <time>2025-11-19T11:00:15.409Z</time>
      </trkpt>
      <trkpt lat="44.43811" lon="6.28993">
        <ele>1436.975124</ele>
        <time>2025-11-19T11:00:25.389Z</time>
      </trkpt>
      <trkpt lat="44.43803" lon="6.28987">
        <ele>1438.255063</ele>
        <time>2025-11-19T11:00:38.383Z</time>
      </trkpt>
      <trkpt lat="44.43793" lon="6.28983">
        <ele>1439.595619</ele>
        <time>2025-11-19T11:00:48.403Z</time>
      </trkpt>
      <trkpt lat="44.43785" lon="6.28976">
        <ele>1440.828586</ele>
        <time>2025-11-19T11:00:56.403Z</time>
      </trkpt>
      <trkpt lat="44.43788" lon="6.28964">
        <ele>1442.049482</ele>
        <time>2025-11-19T11:01:16.374Z</time>
      </trkpt>
      <trkpt lat="44.43793" lon="6.28952">
        <ele>1443.390374</ele>
        <time>2025-11-19T11:01:28.409Z</time>
      </trkpt>
      <trkpt lat="44.43795" lon="6.28939">
        <ele>1444.590268</ele>
        <time>2025-11-19T11:01:42.384Z</time>
      </trkpt>
      <trkpt lat="44.43801" lon="6.2893">
        <ele>1445.81771</ele>
        <time>2025-11-19T11:01:57.394Z</time>
      </trkpt>
      <trkpt lat="44.43806" lon="6.28919">
        <ele>1447.098517</ele>
        <time>2025-11-19T11:02:09.398Z</time>
      </trkpt>
      <trkpt lat="44.43812" lon="6.28909">
        <ele>1448.332818</ele>
        <time>2025-11-19T11:02:21.392Z</time>
      </trkpt>
      <trkpt lat="44.4382" lon="6.28901">
        <ele>1449.556026</ele>
        <time>2025-11-19T11:02:32.387Z</time>
      </trkpt>
      <trkpt lat="44.43823" lon="6.28889">
        <ele>1450.803498</ele>
        <time>2025-11-19T11:02:43.366Z</time>
      </trkpt>
      <trkpt lat="44.43827" lon="6.28876">
        <ele>1452.137009</ele>
        <time>2025-11-19T11:02:55.394Z</time>
      </trkpt>
      <trkpt lat="44.43834" lon="6.28868">
        <ele>1453.425973</ele>
        <time>2025-11-19T11:03:04.409Z</time>
      </trkpt>
      <trkpt lat="44.43844" lon="6.28869">
        <ele>1455.119761</ele>
        <time>2025-11-19T11:03:14.386Z</time>
      </trkpt>
      <trkpt lat="44.43852" lon="6.28863">
        <ele>1456.787543</ele>
        <time>2025-11-19T11:03:40.402Z</time>
      </trkpt>
      <trkpt lat="44.43858" lon="6.28851">
        <ele>1458.550348</ele>
        <time>2025-11-19T11:04:06.393Z</time>
      </trkpt>
      <trkpt lat="44.43865" lon="6.28843">
        <ele>1460.143759</ele>
        <time>2025-11-19T11:04:19.359Z</time>
      </trkpt>
      <trkpt lat="44.43872" lon="6.28836">
        <ele>1461.761021</ele>
        <time>2025-11-19T11:04:28.376Z</time>
      </trkpt>
      <trkpt lat="44.43878" lon="6.28825">
        <ele>1463.502249</ele>
        <time>2025-11-19T11:04:40.367Z</time>
      </trkpt>
      <trkpt lat="44.43882" lon="6.28812">
        <ele>1465.175213</ele>
        <time>2025-11-19T11:04:52.363Z</time>
      </trkpt>
      <trkpt lat="44.43889" lon="6.28802">
        <ele>1466.996087</ele>
        <time>2025-11-19T11:05:04.386Z</time>
      </trkpt>
      <trkpt lat="44.43891" lon="6.2879">
        <ele>1468.63327</ele>
        <time>2025-11-19T11:05:16.367Z</time>
      </trkpt>
      <trkpt lat="44.43885" lon="6.28778">
        <ele>1470.354369</ele>
        <time>2025-11-19T11:05:30.367Z</time>
      </trkpt>
      <trkpt lat="44.43891" lon="6.28768">
        <ele>1472.045833</ele>
        <time>2025-11-19T11:05:39.395Z</time>
      </trkpt>
      <trkpt lat="44.43895" lon="6.28756">
        <ele>1473.740521</ele>
        <time>2025-11-19T11:05:52.348Z</time>
      </trkpt>
      <trkpt lat="44.43902" lon="6.28746">
        <ele>1475.353879</ele>
        <time>2025-11-19T11:06:05.378Z</time>
      </trkpt>
      <trkpt lat="44.43909" lon="6.28737">
        <ele>1477.088818</ele>
        <time>2025-11-19T11:06:15.381Z</time>
      </trkpt>
      <trkpt lat="44.43913" lon="6.28725">
        <ele>1478.761774</ele>
        <time>2025-11-19T11:06:29.391Z</time>
      </trkpt>
      <trkpt lat="44.43918" lon="6.28713">
        <ele>1480.516193</ele>
        <time>2025-11-19T11:06:44.382Z</time>
      </trkpt>
      <trkpt lat="44.43925" lon="6.28704">
        <ele>1482.211084</ele>
        <time>2025-11-19T11:06:54.368Z</time>
      </trkpt>
      <trkpt lat="44.43933" lon="6.28696">
        <ele>1483.866502</ele>
        <time>2025-11-19T11:07:03.366Z</time>
      </trkpt>
      <trkpt lat="44.43941" lon="6.28689">
        <ele>1485.68542</ele>
        <time>2025-11-19T11:07:13.372Z</time>
      </trkpt>
      <trkpt lat="44.43946" lon="6.28678">
        <ele>1487.570319</ele>
        <time>2025-11-19T11:07:29.373Z</time>
      </trkpt>
      <trkpt lat="44.4395" lon="6.28667">
        <ele>1489.34863</ele>
        <time>2025-11-19T11:07:44.387Z</time>
      </trkpt>
      <trkpt lat="44.43958" lon="6.28658">
        <ele>1491.294999</ele>
        <time>2025-11-19T11:07:54.368Z</time>
      </trkpt>
      <trkpt lat="44.43966" lon="6.28649">
        <ele>1493.171245</ele>
        <time>2025-11-19T11:08:06.378Z</time>
      </trkpt>
      <trkpt lat="44.43966" lon="6.28636">
        <ele>1495.056093</ele>
        <time>2025-11-19T11:08:18.380Z</time>
      </trkpt>
      <trkpt lat="44.43966" lon="6.28623">
        <ele>1496.843382</ele>
        <time>2025-11-19T11:08:32.370Z</time>
      </trkpt>
      <trkpt lat="44.43969" lon="6.2861">
        <ele>1498.730002</ele>
        <time>2025-11-19T11:08:44.420Z</time>
      </trkpt>
      <trkpt lat="44.43974" lon="6.28599">
        <ele>1500.513274</ele>
        <time>2025-11-19T11:08:53.381Z</time>
      </trkpt>
      <trkpt lat="44.43975" lon="6.28585">
        <ele>1502.391604</ele>
        <time>2025-11-19T11:09:04.401Z</time>
      </trkpt>
      <trkpt lat="44.43977" lon="6.28572">
        <ele>1504.280785</ele>
        <time>2025-11-19T11:09:16.366Z</time>
      </trkpt>
      <trkpt lat="44.43977" lon="6.28557">
        <ele>1506.418323</ele>
        <time>2025-11-19T11:09:30.374Z</time>
      </trkpt>
      <trkpt lat="44.43979" lon="6.28544">
        <ele>1508.234528</ele>
        <time>2025-11-19T11:09:42.395Z</time>
      </trkpt>
      <trkpt lat="44.43983" lon="6.28532">
        <ele>1510.183851</ele>
        <time>2025-11-19T11:09:52.368Z</time>
      </trkpt>
      <trkpt lat="44.43991" lon="6.28523">
        <ele>1512.056587</ele>
        <time>2025-11-19T11:10:00.388Z</time>
      </trkpt>
      <trkpt lat="44.43998" lon="6.28514">
        <ele>1513.885076</ele>
        <time>2025-11-19T11:10:09.393Z</time>
      </trkpt>
      <trkpt lat="44.44003" lon="6.28504">
        <ele>1515.701556</ele>
        <time>2025-11-19T11:10:19.379Z</time>
      </trkpt>
      <trkpt lat="44.44011" lon="6.28495">
        <ele>1517.643262</ele>
        <time>2025-11-19T11:10:30.376Z</time>
      </trkpt>
      <trkpt lat="44.44016" lon="6.28484">
        <ele>1519.471971</ele>
        <time>2025-11-19T11:11:05.383Z</time>
      </trkpt>
      <trkpt lat="44.44025" lon="6.28464">
        <ele>1520.679273</ele>
        <time>2025-11-19T11:11:50.373Z</time>
      </trkpt>
      <trkpt lat="44.44022" lon="6.28451">
        <ele>1521.157839</ele>
        <time>2025-11-19T11:12:03.382Z</time>
      </trkpt>
      <trkpt lat="44.44019" lon="6.28438">
        <ele>1521.675413</ele>
        <time>2025-11-19T11:12:12.357Z</time>
      </trkpt>
      <trkpt lat="44.44019" lon="6.28423">
        <ele>1522.245174</ele>
        <time>2025-11-19T11:12:20.354Z</time>
      </trkpt>
      <trkpt lat="44.44021" lon="6.2841">
        <ele>1522.724707</ele>
        <time>2025-11-19T11:12:28.373Z</time>
      </trkpt>
      <trkpt lat="44.44027" lon="6.284">
        <ele>1523.212887</ele>
        <time>2025-11-19T11:12:42.366Z</time>
      </trkpt>
      <trkpt lat="44.44026" lon="6.28387">
        <ele>1523.692088</ele>
        <time>2025-11-19T11:12:57.371Z</time>
      </trkpt>
      <trkpt lat="44.4403" lon="6.28375">
        <ele>1524.169176</ele>
        <time>2025-11-19T11:13:06.399Z</time>
      </trkpt>
      <trkpt lat="44.44032" lon="6.28363">
        <ele>1524.643204</ele>
        <time>2025-11-19T11:13:16.377Z</time>
      </trkpt>
      <trkpt lat="44.44032" lon="6.28349">
        <ele>1525.15048</ele>
        <time>2025-11-19T11:13:26.384Z</time>
      </trkpt>
      <trkpt lat="44.44038" lon="6.28328">
        <ele>1525.973615</ele>
        <time>2025-11-19T11:14:04.380Z</time>
      </trkpt>
      <trkpt lat="44.44044" lon="6.28318">
        <ele>1526.450044</ele>
        <time>2025-11-19T11:14:15.377Z</time>
      </trkpt>
      <trkpt lat="44.44052" lon="6.28311">
        <ele>1526.939326</ele>
        <time>2025-11-19T11:14:24.398Z</time>
      </trkpt>
      <trkpt lat="44.4406" lon="6.28304">
        <ele>1527.451509</ele>
        <time>2025-11-19T11:14:35.397Z</time>
      </trkpt>
      <trkpt lat="44.4407" lon="6.283">
        <ele>1527.97208</ele>
        <time>2025-11-19T11:15:10.363Z</time>
      </trkpt>
      <trkpt lat="44.44086" lon="6.28267">
        <ele>1530.010124</ele>
        <time>2025-11-19T11:15:49.366Z</time>
      </trkpt>
      <trkpt lat="44.4409" lon="6.28255">
        <ele>1531.61892</ele>
        <time>2025-11-19T11:15:59.387Z</time>
      </trkpt>
      <trkpt lat="44.44093" lon="6.28243">
        <ele>1533.282106</ele>
        <time>2025-11-19T11:16:13.400Z</time>
      </trkpt>
      <trkpt lat="44.44098" lon="6.28232">
        <ele>1534.984837</ele>
        <time>2025-11-19T11:16:23.392Z</time>
      </trkpt>
      <trkpt lat="44.44104" lon="6.28222">
        <ele>1536.607013</ele>
        <time>2025-11-19T11:16:35.399Z</time>
      </trkpt>
      <trkpt lat="44.44112" lon="6.28214">
        <ele>1538.235501</ele>
        <time>2025-11-19T11:16:50.389Z</time>
      </trkpt>
      <trkpt lat="44.44119" lon="6.28206">
        <ele>1539.89529</ele>
        <time>2025-11-19T11:17:06.409Z</time>
      </trkpt>
      <trkpt lat="44.44127" lon="6.28202">
        <ele>1541.482252</ele>
        <time>2025-11-19T11:17:16.379Z</time>
      </trkpt>
      <trkpt lat="44.44132" lon="6.28191">
        <ele>1543.136395</ele>
        <time>2025-11-19T11:17:26.398Z</time>
      </trkpt>
      <trkpt lat="44.4414" lon="6.28183">
        <ele>1544.771274</ele>
        <time>2025-11-19T11:17:43.405Z</time>
      </trkpt>
      <trkpt lat="44.44149" lon="6.28176">
        <ele>1546.623211</ele>
        <time>2025-11-19T11:17:58.406Z</time>
      </trkpt>
      <trkpt lat="44.44158" lon="6.28171">
        <ele>1548.270821</ele>
        <time>2025-11-19T11:18:09.363Z</time>
      </trkpt>
      <trkpt lat="44.44167" lon="6.28171">
        <ele>1549.912711</ele>
        <time>2025-11-19T11:18:17.376Z</time>
      </trkpt>
      <trkpt lat="44.44177" lon="6.28166">
        <ele>1551.77876</ele>
        <time>2025-11-19T11:18:26.399Z</time>
      </trkpt>
      <trkpt lat="44.44187" lon="6.28165">
        <ele>1553.515318</ele>
        <time>2025-11-19T11:18:36.387Z</time>
      </trkpt>
      <trkpt lat="44.44196" lon="6.28169">
        <ele>1555.173182</ele>
        <time>2025-11-19T11:18:47.404Z</time>
      </trkpt>
      <trkpt lat="44.44204" lon="6.28164">
        <ele>1556.819239</ele>
        <time>2025-11-19T11:19:18.370Z</time>
      </trkpt>
      <trkpt lat="44.4421" lon="6.28154">
        <ele>1558.51242</ele>
        <time>2025-11-19T11:19:27.373Z</time>
      </trkpt>
      <trkpt lat="44.44218" lon="6.28147">
        <ele>1560.126056</ele>
        <time>2025-11-19T11:19:36.356Z</time>
      </trkpt>
      <trkpt lat="44.44227" lon="6.28142">
        <ele>1562.188983</ele>
        <time>2025-11-19T11:19:45.389Z</time>
      </trkpt>
      <trkpt lat="44.44236" lon="6.28138">
        <ele>1564.471077</ele>
        <time>2025-11-19T11:19:55.382Z</time>
      </trkpt>
      <trkpt lat="44.44246" lon="6.28132">
        <ele>1566.95554</ele>
        <time>2025-11-19T11:20:06.399Z</time>
      </trkpt>
      <trkpt lat="44.44255" lon="6.28128">
        <ele>1569.297571</ele>
        <time>2025-11-19T11:20:13.382Z</time>
      </trkpt>
      <trkpt lat="44.44264" lon="6.28122">
        <ele>1571.58162</ele>
        <time>2025-11-19T11:20:26.359Z</time>
      </trkpt>
      <trkpt lat="44.44271" lon="6.28111">
        <ele>1574.09132</ele>
        <time>2025-11-19T11:20:37.398Z</time>
      </trkpt>
      <trkpt lat="44.44272" lon="6.28098">
        <ele>1576.280861</ele>
        <time>2025-11-19T11:20:48.403Z</time>
      </trkpt>
      <trkpt lat="44.44278" lon="6.28089">
        <ele>1578.426156</ele>
        <time>2025-11-19T11:21:01.371Z</time>
      </trkpt>
      <trkpt lat="44.44287" lon="6.28083">
        <ele>1580.711307</ele>
        <time>2025-11-19T11:21:14.419Z</time>
      </trkpt>
      <trkpt lat="44.44296" lon="6.28078">
        <ele>1583.012766</ele>
        <time>2025-11-19T11:21:24.393Z</time>
      </trkpt>
      <trkpt lat="44.44301" lon="6.28067">
        <ele>1585.165821</ele>
        <time>2025-11-19T11:21:41.399Z</time>
      </trkpt>
      <trkpt lat="44.44307" lon="6.28056">
        <ele>1587.498082</ele>
        <time>2025-11-19T11:21:59.389Z</time>
      </trkpt>
      <trkpt lat="44.44311" lon="6.28045">
        <ele>1589.711395</ele>
        <time>2025-11-19T11:22:16.390Z</time>
      </trkpt>
      <trkpt lat="44.44317" lon="6.28034">
        <ele>1591.988246</ele>
        <time>2025-11-19T11:22:27.397Z</time>
      </trkpt>
      <trkpt lat="44.44323" lon="6.28024">
        <ele>1594.122226</ele>
        <time>2025-11-19T11:22:41.381Z</time>
      </trkpt>
      <trkpt lat="44.4432" lon="6.28011">
        <ele>1596.421794</ele>
        <time>2025-11-19T11:22:57.373Z</time>
      </trkpt>
      <trkpt lat="44.44327" lon="6.28002">
        <ele>1598.709406</ele>
        <time>2025-11-19T11:23:07.370Z</time>
      </trkpt>
      <trkpt lat="44.44334" lon="6.27993">
        <ele>1600.900254</ele>
        <time>2025-11-19T11:23:20.380Z</time>
      </trkpt>
      <trkpt lat="44.44341" lon="6.27985">
        <ele>1603.172139</ele>
        <time>2025-11-19T11:23:33.364Z</time>
      </trkpt>
      <trkpt lat="44.44357" lon="6.27983">
        <ele>1605.215959</ele>
        <time>2025-11-19T11:24:26.388Z</time>
      </trkpt>
      <trkpt lat="44.44367" lon="6.27978">
        <ele>1606.374668</ele>
        <time>2025-11-19T11:24:34.373Z</time>
      </trkpt>
      <trkpt lat="44.44384" lon="6.2797">
        <ele>1608.457504</ele>
        <time>2025-11-19T11:25:58.383Z</time>
      </trkpt>
      <trkpt lat="44.44393" lon="6.27965">
        <ele>1609.6409</ele>
        <time>2025-11-19T11:26:07.384Z</time>
      </trkpt>
      <trkpt lat="44.44403" lon="6.27962">
        <ele>1610.7949</ele>
        <time>2025-11-19T11:26:17.363Z</time>
      </trkpt>
      <trkpt lat="44.44412" lon="6.27957">
        <ele>1611.919765</ele>
        <time>2025-11-19T11:26:29.360Z</time>
      </trkpt>
      <trkpt lat="44.44421" lon="6.27954">
        <ele>1612.992615</ele>
        <time>2025-11-19T11:26:39.352Z</time>
      </trkpt>
      <trkpt lat="44.44428" lon="6.27946">
        <ele>1614.050631</ele>
        <time>2025-11-19T11:26:48.370Z</time>
      </trkpt>
      <trkpt lat="44.44438" lon="6.27939">
        <ele>1615.265077</ele>
        <time>2025-11-19T11:26:57.353Z</time>
      </trkpt>
      <trkpt lat="44.44446" lon="6.27933">
        <ele>1616.351918</ele>
        <time>2025-11-19T11:27:07.359Z</time>
      </trkpt>
      <trkpt lat="44.44454" lon="6.27924">
        <ele>1617.500149</ele>
        <time>2025-11-19T11:27:14.358Z</time>
      </trkpt>
      <trkpt lat="44.4446" lon="6.27914">
        <ele>1618.615701</ele>
        <time>2025-11-19T11:27:25.367Z</time>
      </trkpt>
      <trkpt lat="44.44465" lon="6.27902">
        <ele>1619.735819</ele>
        <time>2025-11-19T11:27:35.380Z</time>
      </trkpt>
      <trkpt lat="44.4447" lon="6.27892">
        <ele>1620.797816</ele>
        <time>2025-11-19T11:27:43.377Z</time>
      </trkpt>
      <trkpt lat="44.44477" lon="6.27883">
        <ele>1621.843431</ele>
        <time>2025-11-19T11:27:51.366Z</time>
      </trkpt>
      <trkpt lat="44.44482" lon="6.27873">
        <ele>1622.898968</ele>
        <time>2025-11-19T11:27:58.374Z</time>
      </trkpt>
      <trkpt lat="44.44492" lon="6.27867">
        <ele>1624.096182</ele>
        <time>2025-11-19T11:28:06.367Z</time>
      </trkpt>
      <trkpt lat="44.44497" lon="6.27857">
        <ele>1624.623102</ele>
        <time>2025-11-19T11:28:16.373Z</time>
      </trkpt>
      <trkpt lat="44.44503" lon="6.27846">
        <ele>1624.973228</ele>
        <time>2025-11-19T11:28:26.371Z</time>
      </trkpt>
      <trkpt lat="44.44509" lon="6.27835">
        <ele>1625.344234</ele>
        <time>2025-11-19T11:28:39.367Z</time>
      </trkpt>
      <trkpt lat="44.44513" lon="6.27824">
        <ele>1625.687168</ele>
        <time>2025-11-19T11:28:48.362Z</time>
      </trkpt>
      <trkpt lat="44.44519" lon="6.27814">
        <ele>1626.039532</ele>
        <time>2025-11-19T11:28:57.367Z</time>
      </trkpt>
      <trkpt lat="44.44522" lon="6.27801">
        <ele>1626.389816</ele>
        <time>2025-11-19T11:29:05.379Z</time>
      </trkpt>
      <trkpt lat="44.44523" lon="6.27788">
        <ele>1626.748114</ele>
        <time>2025-11-19T11:29:14.360Z</time>
      </trkpt>
      <trkpt lat="44.44525" lon="6.27776">
        <ele>1627.092837</ele>
        <time>2025-11-19T11:29:24.370Z</time>
      </trkpt>
      <trkpt lat="44.44525" lon="6.27763">
        <ele>1627.452915</ele>
        <time>2025-11-19T11:29:36.364Z</time>
      </trkpt>
      <trkpt lat="44.4454" lon="6.27752">
        <ele>1628.105448</ele>
        <time>2025-11-19T11:30:59.425Z</time>
      </trkpt>
      <trkpt lat="44.4454" lon="6.27765">
        <ele>1628.462682</ele>
        <time>2025-11-19T11:33:52.372Z</time>
      </trkpt>
      <trkpt lat="44.44545" lon="6.27777">
        <ele>1628.840081</ele>
        <time>2025-11-19T11:34:09.379Z</time>
      </trkpt>
      <trkpt lat="44.4454" lon="6.27764">
        <ele>1629.24458</ele>
        <time>2025-11-19T11:35:00.382Z</time>
      </trkpt>
      <trkpt lat="44.44536" lon="6.27752">
        <ele>1629.595476</ele>
        <time>2025-11-19T11:35:19.369Z</time>
      </trkpt>
      <trkpt lat="44.44533" lon="6.2774">
        <ele>1629.951824</ele>
        <time>2025-11-19T11:35:28.383Z</time>
      </trkpt>
      <trkpt lat="44.4453" lon="6.27752">
        <ele>1630.313652</ele>
        <time>2025-11-19T11:36:18.407Z</time>
      </trkpt>
      <trkpt lat="44.4453" lon="6.2777">
        <ele>1630.80078</ele>
        <time>2025-11-19T11:37:48.386Z</time>
      </trkpt>
      <trkpt lat="44.44536" lon="6.27786">
        <ele>1630.815065</ele>
        <time>2025-11-19T11:39:37.376Z</time>
      </trkpt>
      <trkpt lat="44.44543" lon="6.27794">
        <ele>1629.672407</ele>
        <time>2025-11-19T11:39:48.376Z</time>
      </trkpt>
      <trkpt lat="44.44529" lon="6.27769">
        <ele>1626.794383</ele>
        <time>2025-11-19T12:23:04.413Z</time>
      </trkpt>
      <trkpt lat="44.44532" lon="6.27756">
        <ele>1625.624491</ele>
        <time>2025-11-19T12:23:16.401Z</time>
      </trkpt>
      <trkpt lat="44.44541" lon="6.27751">
        <ele>1624.470749</ele>
        <time>2025-11-19T12:23:36.402Z</time>
      </trkpt>
      <trkpt lat="44.44545" lon="6.27777">
        <ele>1622.091405</ele>
        <time>2025-11-19T12:28:00.370Z</time>
      </trkpt>
      <trkpt lat="44.44548" lon="6.27789">
        <ele>1620.953655</ele>
        <time>2025-11-19T12:28:22.381Z</time>
      </trkpt>
      <trkpt lat="44.44549" lon="6.27802">
        <ele>1619.761734</ele>
        <time>2025-11-19T12:28:30.388Z</time>
      </trkpt>
      <trkpt lat="44.44552" lon="6.27815">
        <ele>1618.532467</ele>
        <time>2025-11-19T12:28:39.405Z</time>
      </trkpt>
      <trkpt lat="44.44556" lon="6.27827">
        <ele>1617.370751</ele>
        <time>2025-11-19T12:28:54.386Z</time>
      </trkpt>
      <trkpt lat="44.44559" lon="6.27839">
        <ele>1616.165389</ele>
        <time>2025-11-19T12:29:09.417Z</time>
      </trkpt>
      <trkpt lat="44.44564" lon="6.27852">
        <ele>1614.906236</ele>
        <time>2025-11-19T12:29:24.406Z</time>
      </trkpt>
      <trkpt lat="44.4457" lon="6.27863">
        <ele>1613.716326</ele>
        <time>2025-11-19T12:29:32.394Z</time>
      </trkpt>
      <trkpt lat="44.4457" lon="6.27875">
        <ele>1612.567223</ele>
        <time>2025-11-19T12:29:43.422Z</time>
      </trkpt>
      <trkpt lat="44.44568" lon="6.2789">
        <ele>1611.24933</ele>
        <time>2025-11-19T12:30:05.373Z</time>
      </trkpt>
      <trkpt lat="44.44555" lon="6.27911">
        <ele>1608.784965</ele>
        <time>2025-11-19T12:31:29.365Z</time>
      </trkpt>
      <trkpt lat="44.44546" lon="6.27932">
        <ele>1606.411649</ele>
        <time>2025-11-19T12:33:03.410Z</time>
      </trkpt>
      <trkpt lat="44.44539" lon="6.27941">
        <ele>1605.07686</ele>
        <time>2025-11-19T12:33:22.419Z</time>
      </trkpt>
      <trkpt lat="44.44538" lon="6.27954">
        <ele>1603.849161</ele>
        <time>2025-11-19T12:33:31.394Z</time>
      </trkpt>
      <trkpt lat="44.44531" lon="6.27979">
        <ele>1601.267195</ele>
        <time>2025-11-19T12:38:53.388Z</time>
      </trkpt>
      <trkpt lat="44.44532" lon="6.27993">
        <ele>1599.954966</ele>
        <time>2025-11-19T12:39:02.406Z</time>
      </trkpt>
      <trkpt lat="44.44534" lon="6.28005">
        <ele>1598.756387</ele>
        <time>2025-11-19T12:39:12.432Z</time>
      </trkpt>
      <trkpt lat="44.44535" lon="6.28018">
        <ele>1597.480165</ele>
        <time>2025-11-19T12:39:23.378Z</time>
      </trkpt>
      <trkpt lat="44.4453" lon="6.28029">
        <ele>1596.218474</ele>
        <time>2025-11-19T12:39:29.405Z</time>
      </trkpt>
      <trkpt lat="44.44523" lon="6.28038">
        <ele>1594.983726</ele>
        <time>2025-11-19T12:39:38.397Z</time>
      </trkpt>
      <trkpt lat="44.44519" lon="6.2805">
        <ele>1593.698452</ele>
        <time>2025-11-19T12:39:47.410Z</time>
      </trkpt>
      <trkpt lat="44.44516" lon="6.28064">
        <ele>1592.287229</ele>
        <time>2025-11-19T12:39:55.392Z</time>
      </trkpt>
      <trkpt lat="44.44516" lon="6.28079">
        <ele>1590.909836</ele>
        <time>2025-11-19T12:40:04.356Z</time>
      </trkpt>
      <trkpt lat="44.44509" lon="6.28088">
        <ele>1589.595029</ele>
        <time>2025-11-19T12:40:16.427Z</time>
      </trkpt>
      <trkpt lat="44.445" lon="6.28094">
        <ele>1588.288493</ele>
        <time>2025-11-19T12:40:22.403Z</time>
      </trkpt>
      <trkpt lat="44.44491" lon="6.28098">
        <ele>1587.000965</ele>
        <time>2025-11-19T12:40:30.382Z</time>
      </trkpt>
      <trkpt lat="44.44481" lon="6.28099">
        <ele>1585.725472</ele>
        <time>2025-11-19T12:40:38.397Z</time>
      </trkpt>
      <trkpt lat="44.44472" lon="6.28098">
        <ele>1584.46057</ele>
        <time>2025-11-19T12:40:46.389Z</time>
      </trkpt>
      <trkpt lat="44.44462" lon="6.281">
        <ele>1583.84637</ele>
        <time>2025-11-19T12:40:55.402Z</time>
      </trkpt>
      <trkpt lat="44.44453" lon="6.28099">
        <ele>1583.278294</ele>
        <time>2025-11-19T12:41:02.395Z</time>
      </trkpt>
      <trkpt lat="44.44442" lon="6.28097">
        <ele>1582.646419</ele>
        <time>2025-11-19T12:41:11.407Z</time>
      </trkpt>
      <trkpt lat="44.44433" lon="6.28098">
        <ele>1582.058075</ele>
        <time>2025-11-19T12:41:19.373Z</time>
      </trkpt>
      <trkpt lat="44.44424" lon="6.28101">
        <ele>1581.472303</ele>
        <time>2025-11-19T12:41:26.378Z</time>
      </trkpt>
      <trkpt lat="44.44414" lon="6.281">
        <ele>1580.884338</ele>
        <time>2025-11-19T12:41:33.420Z</time>
      </trkpt>
      <trkpt lat="44.44404" lon="6.28101">
        <ele>1580.236318</ele>
        <time>2025-11-19T12:41:41.372Z</time>
      </trkpt>
      <trkpt lat="44.44394" lon="6.281">
        <ele>1579.631271</ele>
        <time>2025-11-19T12:41:49.380Z</time>
      </trkpt>
      <trkpt lat="44.44384" lon="6.281">
        <ele>1579.008048</ele>
        <time>2025-11-19T12:42:00.389Z</time>
      </trkpt>
      <trkpt lat="44.44375" lon="6.28099">
        <ele>1578.439972</ele>
        <time>2025-11-19T12:42:09.368Z</time>
      </trkpt>
      <trkpt lat="44.44366" lon="6.28104">
        <ele>1577.88477</ele>
        <time>2025-11-19T12:42:21.370Z</time>
      </trkpt>
      <trkpt lat="44.44357" lon="6.28109">
        <ele>1577.280742</ele>
        <time>2025-11-19T12:42:31.388Z</time>
      </trkpt>
      <trkpt lat="44.44348" lon="6.28113">
        <ele>1576.669973</ele>
        <time>2025-11-19T12:42:41.362Z</time>
      </trkpt>
      <trkpt lat="44.44338" lon="6.28114">
        <ele>1576.081217</ele>
        <time>2025-11-19T12:42:50.364Z</time>
      </trkpt>
      <trkpt lat="44.44329" lon="6.28118">
        <ele>1575.496092</ele>
        <time>2025-11-19T12:42:58.379Z</time>
      </trkpt>
      <trkpt lat="44.4432" lon="6.28121">
        <ele>1574.897294</ele>
        <time>2025-11-19T12:43:07.383Z</time>
      </trkpt>
      <trkpt lat="44.4431" lon="6.28123">
        <ele>1574.316258</ele>
        <time>2025-11-19T12:43:16.374Z</time>
      </trkpt>
      <trkpt lat="44.443" lon="6.28125">
        <ele>1573.694926</ele>
        <time>2025-11-19T12:43:26.366Z</time>
      </trkpt>
      <trkpt lat="44.44291" lon="6.28127">
        <ele>1572.583131</ele>
        <time>2025-11-19T12:43:36.365Z</time>
      </trkpt>
      <trkpt lat="44.44281" lon="6.28128">
        <ele>1570.980058</ele>
        <time>2025-11-19T12:43:47.366Z</time>
      </trkpt>
      <trkpt lat="44.44272" lon="6.28128">
        <ele>1569.385236</ele>
        <time>2025-11-19T12:43:57.385Z</time>
      </trkpt>
      <trkpt lat="44.44263" lon="6.28127">
        <ele>1567.822766</ele>
        <time>2025-11-19T12:44:19.388Z</time>
      </trkpt>
      <trkpt lat="44.44253" lon="6.2813">
        <ele>1566.135634</ele>
        <time>2025-11-19T12:44:30.375Z</time>
      </trkpt>
      <trkpt lat="44.44244" lon="6.28132">
        <ele>1564.579656</ele>
        <time>2025-11-19T12:44:41.387Z</time>
      </trkpt>
      <trkpt lat="44.44236" lon="6.28138">
        <ele>1562.996851</ele>
        <time>2025-11-19T12:44:51.372Z</time>
      </trkpt>
      <trkpt lat="44.44226" lon="6.28142">
        <ele>1561.375764</ele>
        <time>2025-11-19T12:45:02.362Z</time>
      </trkpt>
      <trkpt lat="44.44217" lon="6.28146">
        <ele>1559.722356</ele>
        <time>2025-11-19T12:45:13.378Z</time>
      </trkpt>
      <trkpt lat="44.44209" lon="6.28151">
        <ele>1558.138603</ele>
        <time>2025-11-19T12:45:33.379Z</time>
      </trkpt>
      <trkpt lat="44.44199" lon="6.28151">
        <ele>1556.527376</ele>
        <time>2025-11-19T12:45:45.370Z</time>
      </trkpt>
      <trkpt lat="44.4419" lon="6.28149">
        <ele>1555.005699</ele>
        <time>2025-11-19T12:45:53.363Z</time>
      </trkpt>
      <trkpt lat="44.44183" lon="6.28157">
        <ele>1553.442376</ele>
        <time>2025-11-19T12:46:03.413Z</time>
      </trkpt>
      <trkpt lat="44.44173" lon="6.28164">
        <ele>1551.548551</ele>
        <time>2025-11-19T12:46:17.397Z</time>
      </trkpt>
      <trkpt lat="44.44164" lon="6.28169">
        <ele>1549.943924</ele>
        <time>2025-11-19T12:46:24.389Z</time>
      </trkpt>
      <trkpt lat="44.44155" lon="6.28174">
        <ele>1548.294251</ele>
        <time>2025-11-19T12:46:35.420Z</time>
      </trkpt>
      <trkpt lat="44.44146" lon="6.28179">
        <ele>1546.685472</ele>
        <time>2025-11-19T12:46:44.391Z</time>
      </trkpt>
      <trkpt lat="44.44138" lon="6.28185">
        <ele>1545.143828</ele>
        <time>2025-11-19T12:46:57.394Z</time>
      </trkpt>
      <trkpt lat="44.44131" lon="6.28195">
        <ele>1543.511489</ele>
        <time>2025-11-19T12:47:08.400Z</time>
      </trkpt>
      <trkpt lat="44.44117" lon="6.28207">
        <ele>1540.88019</ele>
        <time>2025-11-19T12:47:59.446Z</time>
      </trkpt>
      <trkpt lat="44.44109" lon="6.28215">
        <ele>1539.465105</ele>
        <time>2025-11-19T12:48:12.384Z</time>
      </trkpt>
      <trkpt lat="44.44104" lon="6.28226">
        <ele>1538.103963</ele>
        <time>2025-11-19T12:48:24.421Z</time>
      </trkpt>
      <trkpt lat="44.44098" lon="6.28237">
        <ele>1536.647089</ele>
        <time>2025-11-19T12:48:36.386Z</time>
      </trkpt>
      <trkpt lat="44.44097" lon="6.2825">
        <ele>1535.26457</ele>
        <time>2025-11-19T12:48:46.399Z</time>
      </trkpt>
      <trkpt lat="44.44089" lon="6.28268">
        <ele>1533.03706</ele>
        <time>2025-11-19T12:49:42.417Z</time>
      </trkpt>
      <trkpt lat="44.44084" lon="6.28278">
        <ele>1531.675258</ele>
        <time>2025-11-19T12:49:54.387Z</time>
      </trkpt>
      <trkpt lat="44.44079" lon="6.28289">
        <ele>1530.32163</ele>
        <time>2025-11-19T12:50:08.416Z</time>
      </trkpt>
      <trkpt lat="44.44056" lon="6.2831">
        <ele>1526.26358</ele>
        <time>2025-11-19T12:51:04.406Z</time>
      </trkpt>
      <trkpt lat="44.44049" lon="6.28318">
        <ele>1524.907583</ele>
        <time>2025-11-19T12:51:10.402Z</time>
      </trkpt>
      <trkpt lat="44.44042" lon="6.28327">
        <ele>1523.476841</ele>
        <time>2025-11-19T12:51:22.376Z</time>
      </trkpt>
      <trkpt lat="44.44039" lon="6.28339">
        <ele>1522.100195</ele>
        <time>2025-11-19T12:51:30.405Z</time>
      </trkpt>
      <trkpt lat="44.44037" lon="6.28353">
        <ele>1520.634439</ele>
        <time>2025-11-19T12:51:40.404Z</time>
      </trkpt>
      <trkpt lat="44.44036" lon="6.28366">
        <ele>1519.220295</ele>
        <time>2025-11-19T12:51:49.381Z</time>
      </trkpt>
      <trkpt lat="44.4403" lon="6.28376">
        <ele>1517.8583</ele>
        <time>2025-11-19T12:51:57.427Z</time>
      </trkpt>
      <trkpt lat="44.44026" lon="6.28388">
        <ele>1516.467889</ele>
        <time>2025-11-19T12:52:03.376Z</time>
      </trkpt>
      <trkpt lat="44.44024" lon="6.28401">
        <ele>1515.321205</ele>
        <time>2025-11-19T12:52:11.411Z</time>
      </trkpt>
      <trkpt lat="44.44025" lon="6.28415">
        <ele>1514.172967</ele>
        <time>2025-11-19T12:52:20.412Z</time>
      </trkpt>
      <trkpt lat="44.44024" lon="6.28429">
        <ele>1513.085374</ele>
        <time>2025-11-19T12:52:30.391Z</time>
      </trkpt>
      <trkpt lat="44.44025" lon="6.28442">
        <ele>1511.978221</ele>
        <time>2025-11-19T12:52:39.367Z</time>
      </trkpt>
      <trkpt lat="44.44029" lon="6.28454">
        <ele>1510.960044</ele>
        <time>2025-11-19T12:52:51.411Z</time>
      </trkpt>
      <trkpt lat="44.44025" lon="6.28465">
        <ele>1509.917503</ele>
        <time>2025-11-19T12:53:02.385Z</time>
      </trkpt>
      <trkpt lat="44.4402" lon="6.28478">
        <ele>1508.784471</ele>
        <time>2025-11-19T12:53:16.406Z</time>
      </trkpt>
      <trkpt lat="44.44016" lon="6.2849">
        <ele>1507.715269</ele>
        <time>2025-11-19T12:53:27.392Z</time>
      </trkpt>
      <trkpt lat="44.44009" lon="6.28498">
        <ele>1506.648746</ele>
        <time>2025-11-19T12:53:38.417Z</time>
      </trkpt>
      <trkpt lat="44.44002" lon="6.28507">
        <ele>1505.596765</ele>
        <time>2025-11-19T12:53:49.379Z</time>
      </trkpt>
      <trkpt lat="44.43995" lon="6.28519">
        <ele>1504.384032</ele>
        <time>2025-11-19T12:54:08.419Z</time>
      </trkpt>
      <trkpt lat="44.43989" lon="6.28528">
        <ele>1503.359184</ele>
        <time>2025-11-19T12:54:19.405Z</time>
      </trkpt>
      <trkpt lat="44.43987" lon="6.28541">
        <ele>1502.324372</ele>
        <time>2025-11-19T12:54:33.414Z</time>
      </trkpt>
      <trkpt lat="44.43985" lon="6.28554">
        <ele>1501.252585</ele>
        <time>2025-11-19T12:54:46.421Z</time>
      </trkpt>
      <trkpt lat="44.43984" lon="6.28568">
        <ele>1500.084854</ele>
        <time>2025-11-19T12:55:02.383Z</time>
      </trkpt>
      <trkpt lat="44.43979" lon="6.2858">
        <ele>1498.986561</ele>
        <time>2025-11-19T12:55:17.401Z</time>
      </trkpt>
      <trkpt lat="44.43975" lon="6.28592">
        <ele>1497.901931</ele>
        <time>2025-11-19T12:55:30.402Z</time>
      </trkpt>
      <trkpt lat="44.43974" lon="6.28605">
        <ele>1496.862095</ele>
        <time>2025-11-19T12:55:43.426Z</time>
      </trkpt>
      <trkpt lat="44.43974" lon="6.28617">
        <ele>1495.774959</ele>
        <time>2025-11-19T12:55:55.398Z</time>
      </trkpt>
      <trkpt lat="44.43974" lon="6.28631">
        <ele>1494.04131</ele>
        <time>2025-11-19T12:56:08.401Z</time>
      </trkpt>
      <trkpt lat="44.43968" lon="6.28642">
        <ele>1492.266755</ele>
        <time>2025-11-19T12:56:19.427Z</time>
      </trkpt>
      <trkpt lat="44.43962" lon="6.28651">
        <ele>1490.595021</ele>
        <time>2025-11-19T12:56:32.404Z</time>
      </trkpt>
      <trkpt lat="44.43957" lon="6.28662">
        <ele>1488.879777</ele>
        <time>2025-11-19T12:56:41.395Z</time>
      </trkpt>
      <trkpt lat="44.43952" lon="6.28674">
        <ele>1487.079794</ele>
        <time>2025-11-19T12:56:52.391Z</time>
      </trkpt>
      <trkpt lat="44.43947" lon="6.28684">
        <ele>1485.398201</ele>
        <time>2025-11-19T12:57:05.378Z</time>
      </trkpt>
      <trkpt lat="44.43941" lon="6.28694">
        <ele>1483.635454</ele>
        <time>2025-11-19T12:57:18.382Z</time>
      </trkpt>
      <trkpt lat="44.43934" lon="6.28703">
        <ele>1481.929922</ele>
        <time>2025-11-19T12:57:31.373Z</time>
      </trkpt>
      <trkpt lat="44.43926" lon="6.28712">
        <ele>1480.016596</ele>
        <time>2025-11-19T12:57:45.378Z</time>
      </trkpt>
      <trkpt lat="44.43918" lon="6.28721">
        <ele>1478.134423</ele>
        <time>2025-11-19T12:58:02.380Z</time>
      </trkpt>
      <trkpt lat="44.43913" lon="6.28733">
        <ele>1476.26872</ele>
        <time>2025-11-19T12:58:18.412Z</time>
      </trkpt>
      <trkpt lat="44.43909" lon="6.28745">
        <ele>1474.607871</ele>
        <time>2025-11-19T12:58:30.386Z</time>
      </trkpt>
      <trkpt lat="44.43904" lon="6.28757">
        <ele>1472.76727</ele>
        <time>2025-11-19T12:58:45.394Z</time>
      </trkpt>
      <trkpt lat="44.43898" lon="6.28767">
        <ele>1471.052206</ele>
        <time>2025-11-19T12:58:59.422Z</time>
      </trkpt>
      <trkpt lat="44.43895" lon="6.2878">
        <ele>1469.287036</ele>
        <time>2025-11-19T12:59:18.393Z</time>
      </trkpt>
      <trkpt lat="44.43895" lon="6.28795">
        <ele>1467.342875</ele>
        <time>2025-11-19T12:59:32.411Z</time>
      </trkpt>
      <trkpt lat="44.43889" lon="6.28806">
        <ele>1465.491202</ele>
        <time>2025-11-19T12:59:47.415Z</time>
      </trkpt>
      <trkpt lat="44.43883" lon="6.28816">
        <ele>1463.781213</ele>
        <time>2025-11-19T13:00:00.390Z</time>
      </trkpt>
      <trkpt lat="44.43878" lon="6.28827">
        <ele>1462.116799</ele>
        <time>2025-11-19T13:00:12.407Z</time>
      </trkpt>
      <trkpt lat="44.43866" lon="6.2884">
        <ele>1459.427276</ele>
        <time>2025-11-19T13:00:37.407Z</time>
      </trkpt>
      <trkpt lat="44.4386" lon="6.28851">
        <ele>1457.746572</ele>
        <time>2025-11-19T13:00:47.412Z</time>
      </trkpt>
      <trkpt lat="44.43853" lon="6.28859">
        <ele>1456.170386</ele>
        <time>2025-11-19T13:01:06.428Z</time>
      </trkpt>
      <trkpt lat="44.43838" lon="6.28868">
        <ele>1453.38793</ele>
        <time>2025-11-19T13:01:34.424Z</time>
      </trkpt>
      <trkpt lat="44.43831" lon="6.28877">
        <ele>1451.796499</ele>
        <time>2025-11-19T13:01:48.412Z</time>
      </trkpt>
      <trkpt lat="44.43826" lon="6.28888">
        <ele>1450.186572</ele>
        <time>2025-11-19T13:02:02.381Z</time>
      </trkpt>
      <trkpt lat="44.4382" lon="6.28897">
        <ele>1448.586152</ele>
        <time>2025-11-19T13:02:17.385Z</time>
      </trkpt>
      <trkpt lat="44.43813" lon="6.28914">
        <ele>1446.153003</ele>
        <time>2025-11-19T13:02:53.423Z</time>
      </trkpt>
      <trkpt lat="44.43807" lon="6.28925">
        <ele>1444.492692</ele>
        <time>2025-11-19T13:03:05.407Z</time>
      </trkpt>
      <trkpt lat="44.43802" lon="6.28936">
        <ele>1442.842459</ele>
        <time>2025-11-19T13:03:18.392Z</time>
      </trkpt>
      <trkpt lat="44.43796" lon="6.28946">
        <ele>1441.242345</ele>
        <time>2025-11-19T13:03:28.418Z</time>
      </trkpt>
      <trkpt lat="44.43789" lon="6.28956">
        <ele>1439.5826</ele>
        <time>2025-11-19T13:03:37.362Z</time>
      </trkpt>
      <trkpt lat="44.43785" lon="6.28967">
        <ele>1437.995819</ele>
        <time>2025-11-19T13:03:50.390Z</time>
      </trkpt>
      <trkpt lat="44.43767" lon="6.28958">
        <ele>1434.727194</ele>
        <time>2025-11-19T13:07:29.412Z</time>
      </trkpt>
      <trkpt lat="44.43757" lon="6.28955">
        <ele>1433.016406</ele>
        <time>2025-11-19T13:07:40.434Z</time>
      </trkpt>
      <trkpt lat="44.43749" lon="6.28952">
        <ele>1431.559929</ele>
        <time>2025-11-19T13:07:50.406Z</time>
      </trkpt>
      <trkpt lat="44.4374" lon="6.28945">
        <ele>1430.637532</ele>
        <time>2025-11-19T13:08:02.413Z</time>
      </trkpt>
      <trkpt lat="44.43731" lon="6.28947">
        <ele>1429.724118</ele>
        <time>2025-11-19T13:08:12.414Z</time>
      </trkpt>
      <trkpt lat="44.43721" lon="6.28949">
        <ele>1428.812325</ele>
        <time>2025-11-19T13:08:20.402Z</time>
      </trkpt>
      <trkpt lat="44.43712" lon="6.28947">
        <ele>1427.956593</ele>
        <time>2025-11-19T13:08:37.391Z</time>
      </trkpt>
      <trkpt lat="44.43703" lon="6.28945">
        <ele>1427.087554</ele>
        <time>2025-11-19T13:09:21.391Z</time>
      </trkpt>
      <trkpt lat="44.43693" lon="6.28947">
        <ele>1426.196077</ele>
        <time>2025-11-19T13:09:33.396Z</time>
      </trkpt>
      <trkpt lat="44.43684" lon="6.28949">
        <ele>1425.336334</ele>
        <time>2025-11-19T13:09:46.392Z</time>
      </trkpt>
      <trkpt lat="44.43675" lon="6.28951">
        <ele>1424.447599</ele>
        <time>2025-11-19T13:09:58.387Z</time>
      </trkpt>
      <trkpt lat="44.43666" lon="6.28955">
        <ele>1423.568876</ele>
        <time>2025-11-19T13:10:10.393Z</time>
      </trkpt>
      <trkpt lat="44.43658" lon="6.28961">
        <ele>1422.680856</ele>
        <time>2025-11-19T13:10:20.397Z</time>
      </trkpt>
      <trkpt lat="44.43648" lon="6.28961">
        <ele>1421.75742</ele>
        <time>2025-11-19T13:10:31.400Z</time>
      </trkpt>
      <trkpt lat="44.43638" lon="6.28959">
        <ele>1420.809748</ele>
        <time>2025-11-19T13:10:42.391Z</time>
      </trkpt>
      <trkpt lat="44.43629" lon="6.28962">
        <ele>1419.957893</ele>
        <time>2025-11-19T13:10:50.395Z</time>
      </trkpt>
      <trkpt lat="44.43622" lon="6.28972">
        <ele>1419.064267</ele>
        <time>2025-11-19T13:11:00.395Z</time>
      </trkpt>
      <trkpt lat="44.43614" lon="6.28978">
        <ele>1418.108954</ele>
        <time>2025-11-19T13:11:09.403Z</time>
      </trkpt>
      <trkpt lat="44.43606" lon="6.28985">
        <ele>1417.253702</ele>
        <time>2025-11-19T13:11:18.395Z</time>
      </trkpt>
      <trkpt lat="44.43598" lon="6.28992">
        <ele>1416.379941</ele>
        <time>2025-11-19T13:11:28.430Z</time>
      </trkpt>
      <trkpt lat="44.43589" lon="6.28996">
        <ele>1415.474199</ele>
        <time>2025-11-19T13:11:37.378Z</time>
      </trkpt>
      <trkpt lat="44.43581" lon="6.29004">
        <ele>1414.590897</ele>
        <time>2025-11-19T13:11:46.431Z</time>
      </trkpt>
      <trkpt lat="44.43574" lon="6.29013">
        <ele>1413.949741</ele>
        <time>2025-11-19T13:11:56.390Z</time>
      </trkpt>
      <trkpt lat="44.43568" lon="6.29024">
        <ele>1413.233004</ele>
        <time>2025-11-19T13:12:07.410Z</time>
      </trkpt>
      <trkpt lat="44.43562" lon="6.29034">
        <ele>1412.58825</ele>
        <time>2025-11-19T13:12:18.400Z</time>
      </trkpt>
      <trkpt lat="44.43556" lon="6.29044">
        <ele>1411.9291</ele>
        <time>2025-11-19T13:12:29.397Z</time>
      </trkpt>
      <trkpt lat="44.4355" lon="6.29053">
        <ele>1411.278602</ele>
        <time>2025-11-19T13:12:42.409Z</time>
      </trkpt>
      <trkpt lat="44.43544" lon="6.29063">
        <ele>1410.642837</ele>
        <time>2025-11-19T13:12:53.400Z</time>
      </trkpt>
      <trkpt lat="44.4354" lon="6.29075">
        <ele>1409.975155</ele>
        <time>2025-11-19T13:13:03.366Z</time>
      </trkpt>
      <trkpt lat="44.43533" lon="6.29084">
        <ele>1409.333227</ele>
        <time>2025-11-19T13:13:13.393Z</time>
      </trkpt>
      <trkpt lat="44.43524" lon="6.29088">
        <ele>1408.678156</ele>
        <time>2025-11-19T13:13:22.395Z</time>
      </trkpt>
      <trkpt lat="44.43515" lon="6.29091">
        <ele>1408.021841</ele>
        <time>2025-11-19T13:13:32.401Z</time>
      </trkpt>
      <trkpt lat="44.43506" lon="6.29092">
        <ele>1407.356462</ele>
        <time>2025-11-19T13:13:40.376Z</time>
      </trkpt>
      <trkpt lat="44.43496" lon="6.29092">
        <ele>1406.623584</ele>
        <time>2025-11-19T13:13:48.386Z</time>
      </trkpt>
      <trkpt lat="44.43486" lon="6.2909">
        <ele>1405.958333</ele>
        <time>2025-11-19T13:13:57.377Z</time>
      </trkpt>
      <trkpt lat="44.43477" lon="6.29087">
        <ele>1405.319879</ele>
        <time>2025-11-19T13:14:05.414Z</time>
      </trkpt>
      <trkpt lat="44.43468" lon="6.29083">
        <ele>1404.656242</ele>
        <time>2025-11-19T13:14:14.398Z</time>
      </trkpt>
      <trkpt lat="44.4346" lon="6.29078">
        <ele>1404.019919</ele>
        <time>2025-11-19T13:14:25.415Z</time>
      </trkpt>
      <trkpt lat="44.43451" lon="6.29074">
        <ele>1403.31966</ele>
        <time>2025-11-19T13:14:34.380Z</time>
      </trkpt>
      <trkpt lat="44.43442" lon="6.2907">
        <ele>1402.680619</ele>
        <time>2025-11-19T13:14:40.406Z</time>
      </trkpt>
      <trkpt lat="44.43433" lon="6.29064">
        <ele>1401.954254</ele>
        <time>2025-11-19T13:14:48.401Z</time>
      </trkpt>
      <trkpt lat="44.43423" lon="6.29065">
        <ele>1401.217235</ele>
        <time>2025-11-19T13:15:00.411Z</time>
      </trkpt>
      <trkpt lat="44.43413" lon="6.29068">
        <ele>1400.428961</ele>
        <time>2025-11-19T13:15:12.401Z</time>
      </trkpt>
      <trkpt lat="44.43404" lon="6.29069">
        <ele>1399.708767</ele>
        <time>2025-11-19T13:15:22.413Z</time>
      </trkpt>
      <trkpt lat="44.43394" lon="6.2907">
        <ele>1398.994212</ele>
        <time>2025-11-19T13:15:33.369Z</time>
      </trkpt>
      <trkpt lat="44.43385" lon="6.29074">
        <ele>1398.252505</ele>
        <time>2025-11-19T13:15:43.421Z</time>
      </trkpt>
      <trkpt lat="44.43376" lon="6.29074">
        <ele>1397.524167</ele>
        <time>2025-11-19T13:15:51.402Z</time>
      </trkpt>
      <trkpt lat="44.43366" lon="6.29079">
        <ele>1396.787104</ele>
        <time>2025-11-19T13:16:00.420Z</time>
      </trkpt>
      <trkpt lat="44.43357" lon="6.29082">
        <ele>1396.04516</ele>
        <time>2025-11-19T13:16:08.397Z</time>
      </trkpt>
      <trkpt lat="44.43349" lon="6.29088">
        <ele>1395.326442</ele>
        <time>2025-11-19T13:16:19.399Z</time>
      </trkpt>
      <trkpt lat="44.4334" lon="6.29085">
        <ele>1394.609418</ele>
        <time>2025-11-19T13:17:35.361Z</time>
      </trkpt>
      <trkpt lat="44.4333" lon="6.29084">
        <ele>1393.887234</ele>
        <time>2025-11-19T13:17:46.419Z</time>
      </trkpt>
      <trkpt lat="44.43321" lon="6.29084">
        <ele>1393.182849</ele>
        <time>2025-11-19T13:17:56.399Z</time>
      </trkpt>
      <trkpt lat="44.43312" lon="6.29084">
        <ele>1392.470494</ele>
        <time>2025-11-19T13:18:17.418Z</time>
      </trkpt>
      <trkpt lat="44.43295" lon="6.29094">
        <ele>1391.088395</ele>
        <time>2025-11-19T13:22:18.406Z</time>
      </trkpt>
      <trkpt lat="44.43286" lon="6.29093">
        <ele>1390.353387</ele>
        <time>2025-11-19T13:22:30.409Z</time>
      </trkpt>
      <trkpt lat="44.43277" lon="6.29096">
        <ele>1389.645085</ele>
        <time>2025-11-19T13:22:39.422Z</time>
      </trkpt>
      <trkpt lat="44.43267" lon="6.291">
        <ele>1388.89449</ele>
        <time>2025-11-19T13:22:53.410Z</time>
      </trkpt>
      <trkpt lat="44.43258" lon="6.29101">
        <ele>1388.055265</ele>
        <time>2025-11-19T13:23:02.387Z</time>
      </trkpt>
      <trkpt lat="44.43249" lon="6.29105">
        <ele>1386.387031</ele>
        <time>2025-11-19T13:23:11.379Z</time>
      </trkpt>
      <trkpt lat="44.43235" lon="6.29108">
        <ele>1384.02639</ele>
        <time>2025-11-19T13:23:37.379Z</time>
      </trkpt>
      <trkpt lat="44.43226" lon="6.29111">
        <ele>1382.401386</ele>
        <time>2025-11-19T13:23:45.427Z</time>
      </trkpt>
      <trkpt lat="44.43216" lon="6.29111">
        <ele>1380.718603</ele>
        <time>2025-11-19T13:23:54.400Z</time>
      </trkpt>
      <trkpt lat="44.43207" lon="6.2911">
        <ele>1379.14895</ele>
        <time>2025-11-19T13:24:05.414Z</time>
      </trkpt>
      <trkpt lat="44.43199" lon="6.29106">
        <ele>1377.602229</ele>
        <time>2025-11-19T13:24:14.365Z</time>
      </trkpt>
      <trkpt lat="44.43191" lon="6.291">
        <ele>1376.048232</ele>
        <time>2025-11-19T13:24:22.380Z</time>
      </trkpt>
      <trkpt lat="44.43183" lon="6.29091">
        <ele>1374.318659</ele>
        <time>2025-11-19T13:24:32.409Z</time>
      </trkpt>
      <trkpt lat="44.43176" lon="6.29082">
        <ele>1372.742397</ele>
        <time>2025-11-19T13:24:41.436Z</time>
      </trkpt>
      <trkpt lat="44.43167" lon="6.29078">
        <ele>1371.178683</ele>
        <time>2025-11-19T13:24:51.392Z</time>
      </trkpt>
      <trkpt lat="44.43159" lon="6.29073">
        <ele>1369.560251</ele>
        <time>2025-11-19T13:25:01.407Z</time>
      </trkpt>
      <trkpt lat="44.4315" lon="6.29069">
        <ele>1368.000016</ele>
        <time>2025-11-19T13:25:11.392Z</time>
      </trkpt>
      <trkpt lat="44.43141" lon="6.29066">
        <ele>1366.448698</ele>
        <time>2025-11-19T13:25:20.410Z</time>
      </trkpt>
      <trkpt lat="44.43132" lon="6.29065">
        <ele>1364.810746</ele>
        <time>2025-11-19T13:25:30.394Z</time>
      </trkpt>
      <trkpt lat="44.43123" lon="6.29063">
        <ele>1363.247033</ele>
        <time>2025-11-19T13:25:42.417Z</time>
      </trkpt>
      <trkpt lat="44.43113" lon="6.2906">
        <ele>1361.537691</ele>
        <time>2025-11-19T13:25:51.386Z</time>
      </trkpt>
      <trkpt lat="44.43104" lon="6.29059">
        <ele>1359.963882</ele>
        <time>2025-11-19T13:26:00.409Z</time>
      </trkpt>
      <trkpt lat="44.43094" lon="6.29056">
        <ele>1358.256579</ele>
        <time>2025-11-19T13:26:10.434Z</time>
      </trkpt>
      <trkpt lat="44.43085" lon="6.29055">
        <ele>1356.894042</ele>
        <time>2025-11-19T13:26:20.401Z</time>
      </trkpt>
      <trkpt lat="44.43076" lon="6.29052">
        <ele>1355.831036</ele>
        <time>2025-11-19T13:26:29.406Z</time>
      </trkpt>
      <trkpt lat="44.43066" lon="6.29049">
        <ele>1354.661118</ele>
        <time>2025-11-19T13:26:38.395Z</time>
      </trkpt>
      <trkpt lat="44.43057" lon="6.29048">
        <ele>1353.587756</ele>
        <time>2025-11-19T13:26:47.406Z</time>
      </trkpt>
      <trkpt lat="44.43048" lon="6.29044">
        <ele>1352.50781</ele>
        <time>2025-11-19T13:26:56.401Z</time>
      </trkpt>
      <trkpt lat="44.43039" lon="6.2904">
        <ele>1351.382009</ele>
        <time>2025-11-19T13:27:05.430Z</time>
      </trkpt>
      <trkpt lat="44.4303" lon="6.29038">
        <ele>1350.315168</ele>
        <time>2025-11-19T13:27:14.401Z</time>
      </trkpt>
      <trkpt lat="44.43021" lon="6.29031">
        <ele>1349.134582</ele>
        <time>2025-11-19T13:27:23.427Z</time>
      </trkpt>
      <trkpt lat="44.43012" lon="6.29029">
        <ele>1348.077573</ele>
        <time>2025-11-19T13:27:31.400Z</time>
      </trkpt>
      <trkpt lat="44.43002" lon="6.29027">
        <ele>1346.962345</ele>
        <time>2025-11-19T13:27:40.418Z</time>
      </trkpt>
      <trkpt lat="44.42993" lon="6.29024">
        <ele>1345.867773</ele>
        <time>2025-11-19T13:27:49.402Z</time>
      </trkpt>
      <trkpt lat="44.42984" lon="6.29025">
        <ele>1344.817095</ele>
        <time>2025-11-19T13:27:57.416Z</time>
      </trkpt>
      <trkpt lat="44.42974" lon="6.29024">
        <ele>1343.650741</ele>
        <time>2025-11-19T13:28:06.373Z</time>
      </trkpt>
      <trkpt lat="44.42965" lon="6.29023">
        <ele>1342.597992</ele>
        <time>2025-11-19T13:28:14.411Z</time>
      </trkpt>
      <trkpt lat="44.42956" lon="6.2902">
        <ele>1341.496116</ele>
        <time>2025-11-19T13:28:21.412Z</time>
      </trkpt>
      <trkpt lat="44.42947" lon="6.29022">
        <ele>1340.40931</ele>
        <time>2025-11-19T13:28:31.398Z</time>
      </trkpt>
      <trkpt lat="44.42937" lon="6.29024">
        <ele>1339.268792</ele>
        <time>2025-11-19T13:28:39.416Z</time>
      </trkpt>
      <trkpt lat="44.42928" lon="6.29027">
        <ele>1338.115717</ele>
        <time>2025-11-19T13:28:47.414Z</time>
      </trkpt>
      <trkpt lat="44.42919" lon="6.29031">
        <ele>1337.063082</ele>
        <time>2025-11-19T13:28:55.410Z</time>
      </trkpt>
      <trkpt lat="44.4291" lon="6.29032">
        <ele>1335.832902</ele>
        <time>2025-11-19T13:29:04.374Z</time>
      </trkpt>
      <trkpt lat="44.429" lon="6.29033">
        <ele>1334.48948</ele>
        <time>2025-11-19T13:29:13.391Z</time>
      </trkpt>
      <trkpt lat="44.42891" lon="6.29032">
        <ele>1333.18094</ele>
        <time>2025-11-19T13:29:24.398Z</time>
      </trkpt>
      <trkpt lat="44.42883" lon="6.29029">
        <ele>1331.847106</ele>
        <time>2025-11-19T13:29:35.386Z</time>
      </trkpt>
      <trkpt lat="44.42875" lon="6.29022">
        <ele>1330.495472</ele>
        <time>2025-11-19T13:29:49.391Z</time>
      </trkpt>
      <trkpt lat="44.42871" lon="6.29009">
        <ele>1329.04114</ele>
        <time>2025-11-19T13:30:00.399Z</time>
      </trkpt>
      <trkpt lat="44.42869" lon="6.28995">
        <ele>1327.61224</ele>
        <time>2025-11-19T13:30:18.406Z</time>
      </trkpt>
      <trkpt lat="44.42869" lon="6.28981">
        <ele>1326.139857</ele>
        <time>2025-11-19T13:30:27.421Z</time>
      </trkpt>
      <trkpt lat="44.42866" lon="6.28969">
        <ele>1324.732963</ele>
        <time>2025-11-19T13:30:35.388Z</time>
      </trkpt>
      <trkpt lat="44.42856" lon="6.28966">
        <ele>1323.335121</ele>
        <time>2025-11-19T13:30:44.419Z</time>
      </trkpt>
      <trkpt lat="44.42848" lon="6.28973">
        <ele>1321.956672</ele>
        <time>2025-11-19T13:30:54.404Z</time>
      </trkpt>
      <trkpt lat="44.42838" lon="6.28976">
        <ele>1320.577992</ele>
        <time>2025-11-19T13:31:02.424Z</time>
      </trkpt>
      <trkpt lat="44.4283" lon="6.28985">
        <ele>1319.096053</ele>
        <time>2025-11-19T13:31:09.413Z</time>
      </trkpt>
      <trkpt lat="44.42823" lon="6.28993">
        <ele>1317.661252</ele>
        <time>2025-11-19T13:31:17.396Z</time>
      </trkpt>
      <trkpt lat="44.42814" lon="6.29">
        <ele>1316.284894</ele>
        <time>2025-11-19T13:31:25.404Z</time>
      </trkpt>
      <trkpt lat="44.42806" lon="6.29006">
        <ele>1314.864016</ele>
        <time>2025-11-19T13:31:35.412Z</time>
      </trkpt>
      <trkpt lat="44.42798" lon="6.29014">
        <ele>1313.442786</ele>
        <time>2025-11-19T13:31:44.426Z</time>
      </trkpt>
      <trkpt lat="44.42789" lon="6.29021">
        <ele>1312.014383</ele>
        <time>2025-11-19T13:31:54.414Z</time>
      </trkpt>
      <trkpt lat="44.42782" lon="6.29031">
        <ele>1310.517727</ele>
        <time>2025-11-19T13:32:07.391Z</time>
      </trkpt>
      <trkpt lat="44.42772" lon="6.29036">
        <ele>1309.808727</ele>
        <time>2025-11-19T13:32:14.392Z</time>
      </trkpt>
      <trkpt lat="44.42764" lon="6.29042">
        <ele>1309.209917</ele>
        <time>2025-11-19T13:32:21.398Z</time>
      </trkpt>
      <trkpt lat="44.42758" lon="6.29051">
        <ele>1308.606306</ele>
        <time>2025-11-19T13:32:29.391Z</time>
      </trkpt>
      <trkpt lat="44.42753" lon="6.29062">
        <ele>1307.999464</ele>
        <time>2025-11-19T13:32:38.395Z</time>
      </trkpt>
      <trkpt lat="44.42747" lon="6.29071">
        <ele>1307.386219</ele>
        <time>2025-11-19T13:32:47.398Z</time>
      </trkpt>
      <trkpt lat="44.42741" lon="6.29082">
        <ele>1306.737019</ele>
        <time>2025-11-19T13:32:57.404Z</time>
      </trkpt>
      <trkpt lat="44.42735" lon="6.29093">
        <ele>1306.097288</ele>
        <time>2025-11-19T13:33:07.403Z</time>
      </trkpt>
      <trkpt lat="44.42728" lon="6.29102">
        <ele>1305.496778</ele>
        <time>2025-11-19T13:33:16.399Z</time>
      </trkpt>
      <trkpt lat="44.4272" lon="6.29109">
        <ele>1304.869089</ele>
        <time>2025-11-19T13:33:25.408Z</time>
      </trkpt>
      <trkpt lat="44.42712" lon="6.29115">
        <ele>1304.257046</ele>
        <time>2025-11-19T13:33:33.390Z</time>
      </trkpt>
      <trkpt lat="44.42705" lon="6.29123">
        <ele>1303.637472</ele>
        <time>2025-11-19T13:33:43.423Z</time>
      </trkpt>
      <trkpt lat="44.42696" lon="6.2913">
        <ele>1302.99603</ele>
        <time>2025-11-19T13:33:52.406Z</time>
      </trkpt>
      <trkpt lat="44.42688" lon="6.29138">
        <ele>1302.352107</ele>
        <time>2025-11-19T13:34:01.397Z</time>
      </trkpt>
      <trkpt lat="44.4268" lon="6.29145">
        <ele>1301.737759</ele>
        <time>2025-11-19T13:34:09.414Z</time>
      </trkpt>
      <trkpt lat="44.42672" lon="6.29153">
        <ele>1301.061248</ele>
        <time>2025-11-19T13:34:18.397Z</time>
      </trkpt>
      <trkpt lat="44.42664" lon="6.29162">
        <ele>1300.398098</ele>
        <time>2025-11-19T13:34:27.387Z</time>
      </trkpt>
      <trkpt lat="44.42657" lon="6.29169">
        <ele>1299.788664</ele>
        <time>2025-11-19T13:34:35.382Z</time>
      </trkpt>
      <trkpt lat="44.42651" lon="6.2918">
        <ele>1299.158729</ele>
        <time>2025-11-19T13:34:45.413Z</time>
      </trkpt>
      <trkpt lat="44.42645" lon="6.2919">
        <ele>1298.529674</ele>
        <time>2025-11-19T13:34:53.389Z</time>
      </trkpt>
      <trkpt lat="44.42639" lon="6.292">
        <ele>1298.754134</ele>
        <time>2025-11-19T13:35:02.405Z</time>
      </trkpt>
      <trkpt lat="44.42631" lon="6.2921">
        <ele>1298.988868</ele>
        <time>2025-11-19T13:35:12.400Z</time>
      </trkpt>
      <trkpt lat="44.42627" lon="6.29221">
        <ele>1299.214241</ele>
        <time>2025-11-19T13:35:21.400Z</time>
      </trkpt>
      <trkpt lat="44.42621" lon="6.29233">
        <ele>1299.446877</ele>
        <time>2025-11-19T13:35:29.420Z</time>
      </trkpt>
      <trkpt lat="44.42618" lon="6.29246">
        <ele>1299.68044</ele>
        <time>2025-11-19T13:35:38.385Z</time>
      </trkpt>
      <trkpt lat="44.42619" lon="6.2926">
        <ele>1299.913449</ele>
        <time>2025-11-19T13:35:48.412Z</time>
      </trkpt>
      <trkpt lat="44.42619" lon="6.29273">
        <ele>1300.138278</ele>
        <time>2025-11-19T13:35:57.440Z</time>
      </trkpt>
      <trkpt lat="44.42623" lon="6.29285">
        <ele>1300.364069</ele>
        <time>2025-11-19T13:36:05.387Z</time>
      </trkpt>
      <trkpt lat="44.42625" lon="6.29299">
        <ele>1300.60325</ele>
        <time>2025-11-19T13:36:15.394Z</time>
      </trkpt>
      <trkpt lat="44.42627" lon="6.29312">
        <ele>1300.828528</ele>
        <time>2025-11-19T13:36:24.391Z</time>
      </trkpt>
      <trkpt lat="44.42631" lon="6.29324">
        <ele>1301.063718</ele>
        <time>2025-11-19T13:36:32.405Z</time>
      </trkpt>
      <trkpt lat="44.42635" lon="6.29336">
        <ele>1301.292236</ele>
        <time>2025-11-19T13:36:41.414Z</time>
      </trkpt>
      <trkpt lat="44.42642" lon="6.29346">
        <ele>1301.509966</ele>
        <time>2025-11-19T13:36:49.391Z</time>
      </trkpt>
      <trkpt lat="44.42649" lon="6.29355">
        <ele>1301.749617</ele>
        <time>2025-11-19T13:36:57.397Z</time>
      </trkpt>
      <trkpt lat="44.42657" lon="6.29363">
        <ele>1301.984524</ele>
        <time>2025-11-19T13:37:06.403Z</time>
      </trkpt>
      <trkpt lat="44.42665" lon="6.29372">
        <ele>1302.212524</ele>
        <time>2025-11-19T13:37:14.418Z</time>
      </trkpt>
      <trkpt lat="44.42671" lon="6.29382">
        <ele>1302.442874</ele>
        <time>2025-11-19T13:37:24.390Z</time>
      </trkpt>
      <trkpt lat="44.42677" lon="6.29391">
        <ele>1302.663177</ele>
        <time>2025-11-19T13:37:33.416Z</time>
      </trkpt>
      <trkpt lat="44.42684" lon="6.29402">
        <ele>1302.771993</ele>
        <time>2025-11-19T13:37:42.382Z</time>
      </trkpt>
      <trkpt lat="44.42689" lon="6.29412">
        <ele>1302.706421</ele>
        <time>2025-11-19T13:37:49.410Z</time>
      </trkpt>
      <trkpt lat="44.42693" lon="6.29425">
        <ele>1302.635069</ele>
        <time>2025-11-19T13:37:57.406Z</time>
      </trkpt>
      <trkpt lat="44.42697" lon="6.29437">
        <ele>1302.568069</ele>
        <time>2025-11-19T13:38:05.414Z</time>
      </trkpt>
      <trkpt lat="44.42704" lon="6.29446">
        <ele>1302.502832</ele>
        <time>2025-11-19T13:38:13.388Z</time>
      </trkpt>
      <trkpt lat="44.42709" lon="6.29457">
        <ele>1302.432091</ele>
        <time>2025-11-19T13:38:21.400Z</time>
      </trkpt>
      <trkpt lat="44.42715" lon="6.29467">
        <ele>1302.362249</ele>
        <time>2025-11-19T13:38:29.415Z</time>
      </trkpt>
      <trkpt lat="44.42721" lon="6.29478">
        <ele>1302.292475</ele>
        <time>2025-11-19T13:38:37.403Z</time>
      </trkpt>
      <trkpt lat="44.42728" lon="6.29487">
        <ele>1302.223013</ele>
        <time>2025-11-19T13:38:46.379Z</time>
      </trkpt>
      <trkpt lat="44.42735" lon="6.29496">
        <ele>1302.155144</ele>
        <time>2025-11-19T13:38:53.375Z</time>
      </trkpt>
      <trkpt lat="44.42743" lon="6.29504">
        <ele>1302.084306</ele>
        <time>2025-11-19T13:39:03.392Z</time>
      </trkpt>
      <trkpt lat="44.4275" lon="6.29514">
        <ele>1302.00976</ele>
        <time>2025-11-19T13:39:11.372Z</time>
      </trkpt>
      <trkpt lat="44.42757" lon="6.29523">
        <ele>1301.940933</ele>
        <time>2025-11-19T13:39:20.391Z</time>
      </trkpt>
      <trkpt lat="44.42764" lon="6.29533">
        <ele>1301.86795</ele>
        <time>2025-11-19T13:39:29.443Z</time>
      </trkpt>
      <trkpt lat="44.42771" lon="6.29543">
        <ele>1301.797374</ele>
        <time>2025-11-19T13:39:38.421Z</time>
      </trkpt>
      <trkpt lat="44.42778" lon="6.29552">
        <ele>1301.727749</ele>
        <time>2025-11-19T13:39:46.421Z</time>
      </trkpt>
      <trkpt lat="44.42786" lon="6.2956">
        <ele>1301.656341</ele>
        <time>2025-11-19T13:39:54.367Z</time>
      </trkpt>
      <trkpt lat="44.42793" lon="6.2957">
        <ele>1301.587638</ele>
        <time>2025-11-19T13:40:01.374Z</time>
      </trkpt>
      <trkpt lat="44.428" lon="6.29577">
        <ele>1301.522128</ele>
        <time>2025-11-19T13:40:10.395Z</time>
      </trkpt>
      <trkpt lat="44.42808" lon="6.29585">
        <ele>1301.059642</ele>
        <time>2025-11-19T13:40:19.385Z</time>
      </trkpt>
      <trkpt lat="44.42815" lon="6.29594">
        <ele>1300.459846</ele>
        <time>2025-11-19T13:40:29.378Z</time>
      </trkpt>
      <trkpt lat="44.42823" lon="6.29604">
        <ele>1299.789782</ele>
        <time>2025-11-19T13:40:40.393Z</time>
      </trkpt>
      <trkpt lat="44.42832" lon="6.29611">
        <ele>1299.139678</ele>
        <time>2025-11-19T13:40:50.399Z</time>
      </trkpt>
      <trkpt lat="44.42839" lon="6.29619">
        <ele>1298.55264</ele>
        <time>2025-11-19T13:40:58.411Z</time>
      </trkpt>
      <trkpt lat="44.42845" lon="6.2963">
        <ele>1297.919667</ele>
        <time>2025-11-19T13:41:06.403Z</time>
      </trkpt>
      <trkpt lat="44.42853" lon="6.29638">
        <ele>1297.297874</ele>
        <time>2025-11-19T13:41:15.400Z</time>
      </trkpt>
      <trkpt lat="44.42861" lon="6.29643">
        <ele>1296.723674</ele>
        <time>2025-11-19T13:41:24.386Z</time>
      </trkpt>
      <trkpt lat="44.42869" lon="6.29649">
        <ele>1296.141294</ele>
        <time>2025-11-19T13:41:32.396Z</time>
      </trkpt>
      <trkpt lat="44.42877" lon="6.29657">
        <ele>1295.516751</ele>
        <time>2025-11-19T13:41:41.405Z</time>
      </trkpt>
      <trkpt lat="44.42885" lon="6.29665">
        <ele>1294.926241</ele>
        <time>2025-11-19T13:41:49.401Z</time>
      </trkpt>
      <trkpt lat="44.42893" lon="6.29671">
        <ele>1294.307157</ele>
        <time>2025-11-19T13:41:58.401Z</time>
      </trkpt>
      <trkpt lat="44.42901" lon="6.29677">
        <ele>1293.730428</ele>
        <time>2025-11-19T13:42:06.400Z</time>
      </trkpt>
      <trkpt lat="44.4291" lon="6.29681">
        <ele>1293.150798</ele>
        <time>2025-11-19T13:42:14.393Z</time>
      </trkpt>
      <trkpt lat="44.42919" lon="6.29688">
        <ele>1292.511022</ele>
        <time>2025-11-19T13:42:23.386Z</time>
      </trkpt>
      <trkpt lat="44.42928" lon="6.29694">
        <ele>1291.863673</ele>
        <time>2025-11-19T13:42:31.366Z</time>
      </trkpt>
      <trkpt lat="44.42937" lon="6.29698">
        <ele>1291.27907</ele>
        <time>2025-11-19T13:42:40.402Z</time>
      </trkpt>
      <trkpt lat="44.42945" lon="6.29706">
        <ele>1290.628525</ele>
        <time>2025-11-19T13:42:49.410Z</time>
      </trkpt>
      <trkpt lat="44.42951" lon="6.29716">
        <ele>1290.035778</ele>
        <time>2025-11-19T13:42:57.398Z</time>
      </trkpt>
      <trkpt lat="44.42957" lon="6.29726">
        <ele>1289.808323</ele>
        <time>2025-11-19T13:43:05.411Z</time>
      </trkpt>
      <trkpt lat="44.42962" lon="6.29737">
        <ele>1289.565476</ele>
        <time>2025-11-19T13:43:14.415Z</time>
      </trkpt>
      <trkpt lat="44.42967" lon="6.29749">
        <ele>1289.329584</ele>
        <time>2025-11-19T13:43:22.430Z</time>
      </trkpt>
      <trkpt lat="44.42971" lon="6.29762">
        <ele>1289.086779</ele>
        <time>2025-11-19T13:43:32.415Z</time>
      </trkpt>
      <trkpt lat="44.42974" lon="6.29774">
        <ele>1288.853209</ele>
        <time>2025-11-19T13:43:40.422Z</time>
      </trkpt>
      <trkpt lat="44.42974" lon="6.29787">
        <ele>1288.627148</ele>
        <time>2025-11-19T13:43:48.415Z</time>
      </trkpt>
      <trkpt lat="44.42973" lon="6.29801">
        <ele>1288.375281</ele>
        <time>2025-11-19T13:43:56.403Z</time>
      </trkpt>
      <trkpt lat="44.42973" lon="6.29814">
        <ele>1288.150889</ele>
        <time>2025-11-19T13:44:05.411Z</time>
      </trkpt>
      <trkpt lat="44.42972" lon="6.29827">
        <ele>1287.912274</ele>
        <time>2025-11-19T13:44:14.412Z</time>
      </trkpt>
      <trkpt lat="44.42974" lon="6.29841">
        <ele>1287.666825</ele>
        <time>2025-11-19T13:44:23.418Z</time>
      </trkpt>
      <trkpt lat="44.42978" lon="6.29854">
        <ele>1287.41209</ele>
        <time>2025-11-19T13:44:33.415Z</time>
      </trkpt>
      <trkpt lat="44.4298" lon="6.29868">
        <ele>1287.168721</ele>
        <time>2025-11-19T13:44:41.416Z</time>
      </trkpt>
      <trkpt lat="44.42983" lon="6.29881">
        <ele>1286.929312</ele>
        <time>2025-11-19T13:44:49.422Z</time>
      </trkpt>
      <trkpt lat="44.42986" lon="6.29893">
        <ele>1286.692404</ele>
        <time>2025-11-19T13:44:57.416Z</time>
      </trkpt>
      <trkpt lat="44.42993" lon="6.29903">
        <ele>1286.461871</ele>
        <time>2025-11-19T13:45:05.383Z</time>
      </trkpt>
      <trkpt lat="44.42992" lon="6.29915">
        <ele>1286.239243</ele>
        <time>2025-11-19T13:45:16.378Z</time>
      </trkpt>
      <trkpt lat="44.43" lon="6.29923">
        <ele>1286.013148</ele>
        <time>2025-11-19T13:45:25.393Z</time>
      </trkpt>
      <trkpt lat="44.43009" lon="6.2993">
        <ele>1285.755179</ele>
        <time>2025-11-19T13:45:34.387Z</time>
      </trkpt>
      <trkpt lat="44.43018" lon="6.29935">
        <ele>1285.614105</ele>
        <time>2025-11-19T13:45:42.402Z</time>
      </trkpt>
      <trkpt lat="44.43027" lon="6.29937">
        <ele>1285.72785</ele>
        <time>2025-11-19T13:45:50.398Z</time>
      </trkpt>
      <trkpt lat="44.43037" lon="6.2994">
        <ele>1285.844141</ele>
        <time>2025-11-19T13:45:57.378Z</time>
      </trkpt>
      <trkpt lat="44.43047" lon="6.29939">
        <ele>1285.970134</ele>
        <time>2025-11-19T13:46:05.418Z</time>
      </trkpt>
      <trkpt lat="44.43057" lon="6.29938">
        <ele>1286.087828</ele>
        <time>2025-11-19T13:46:13.401Z</time>
      </trkpt>
      <trkpt lat="44.43065" lon="6.29935">
        <ele>1286.198764</ele>
        <time>2025-11-19T13:46:22.376Z</time>
      </trkpt>
      <trkpt lat="44.43075" lon="6.29931">
        <ele>1286.314355</ele>
        <time>2025-11-19T13:46:31.389Z</time>
      </trkpt>
      <trkpt lat="44.43083" lon="6.29925">
        <ele>1286.426057</ele>
        <time>2025-11-19T13:46:41.374Z</time>
      </trkpt>
      <trkpt lat="44.43091" lon="6.29918">
        <ele>1286.541818</ele>
        <time>2025-11-19T13:46:51.373Z</time>
      </trkpt>
      <trkpt lat="44.431" lon="6.29913">
        <ele>1286.661754</ele>
        <time>2025-11-19T13:47:01.404Z</time>
      </trkpt>
      <trkpt lat="44.43108" lon="6.29907">
        <ele>1286.774111</ele>
        <time>2025-11-19T13:47:09.417Z</time>
      </trkpt>
      <trkpt lat="44.43117" lon="6.29903">
        <ele>1286.88786</ele>
        <time>2025-11-19T13:47:20.419Z</time>
      </trkpt>
      <trkpt lat="44.43127" lon="6.299">
        <ele>1287.008857</ele>
        <time>2025-11-19T13:47:30.408Z</time>
      </trkpt>
      <trkpt lat="44.43135" lon="6.29894">
        <ele>1287.117387</ele>
        <time>2025-11-19T13:47:39.406Z</time>
      </trkpt>
      <trkpt lat="44.43144" lon="6.2989">
        <ele>1287.227318</ele>
        <time>2025-11-19T13:47:47.413Z</time>
      </trkpt>
      <trkpt lat="44.43153" lon="6.29887">
        <ele>1287.340721</ele>
        <time>2025-11-19T13:47:55.414Z</time>
      </trkpt>
      <trkpt lat="44.43162" lon="6.29884">
        <ele>1287.458021</ele>
        <time>2025-11-19T13:48:03.400Z</time>
      </trkpt>
      <trkpt lat="44.43172" lon="6.29885">
        <ele>1287.574447</ele>
        <time>2025-11-19T13:48:13.391Z</time>
      </trkpt>
      <trkpt lat="44.43183" lon="6.29881">
        <ele>1287.717311</ele>
        <time>2025-11-19T13:50:40.387Z</time>
      </trkpt>
      <trkpt lat="44.43191" lon="6.29873">
        <ele>1287.563547</ele>
        <time>2025-11-19T13:50:51.426Z</time>
      </trkpt>
      <trkpt lat="44.43198" lon="6.29865">
        <ele>1287.267028</ele>
        <time>2025-11-19T13:50:59.413Z</time>
      </trkpt>
      <trkpt lat="44.43207" lon="6.2986">
        <ele>1286.945377</ele>
        <time>2025-11-19T13:51:10.412Z</time>
      </trkpt>
      <trkpt lat="44.43216" lon="6.29857">
        <ele>1286.651418</ele>
        <time>2025-11-19T13:51:19.411Z</time>
      </trkpt>
      <trkpt lat="44.43224" lon="6.29851">
        <ele>1286.357222</ele>
        <time>2025-11-19T13:51:29.423Z</time>
      </trkpt>
      <trkpt lat="44.43233" lon="6.29848">
        <ele>1286.060746</ele>
        <time>2025-11-19T13:51:38.373Z</time>
      </trkpt>
      <trkpt lat="44.43243" lon="6.29847">
        <ele>1285.76814</ele>
        <time>2025-11-19T13:51:44.385Z</time>
      </trkpt>
      <trkpt lat="44.43269" lon="6.29827">
        <ele>1284.819695</ele>
        <time>2025-11-19T13:52:21.422Z</time>
      </trkpt>
      <trkpt lat="44.43277" lon="6.29819">
        <ele>1284.502601</ele>
        <time>2025-11-19T13:52:30.409Z</time>
      </trkpt>
      <trkpt lat="44.43283" lon="6.2981">
        <ele>1284.202066</ele>
        <time>2025-11-19T13:52:38.424Z</time>
      </trkpt>
      <trkpt lat="44.43291" lon="6.298">
        <ele>1283.874695</ele>
        <time>2025-11-19T13:52:47.417Z</time>
      </trkpt>
      <trkpt lat="44.43295" lon="6.29788">
        <ele>1283.582703</ele>
        <time>2025-11-19T13:52:56.408Z</time>
      </trkpt>
      <trkpt lat="44.43297" lon="6.29774">
        <ele>1283.255935</ele>
        <time>2025-11-19T13:53:04.427Z</time>
      </trkpt>
      <trkpt lat="44.433" lon="6.29761">
        <ele>1282.933189</ele>
        <time>2025-11-19T13:53:12.392Z</time>
      </trkpt>
      <trkpt lat="44.43298" lon="6.29748">
        <ele>1282.61912</ele>
        <time>2025-11-19T13:53:19.384Z</time>
      </trkpt>
      <trkpt lat="44.43297" lon="6.29735">
        <ele>1282.321729</ele>
        <time>2025-11-19T13:53:28.410Z</time>
      </trkpt>
      <trkpt lat="44.43294" lon="6.29722">
        <ele>1282.030631</ele>
        <time>2025-11-19T13:53:35.414Z</time>
      </trkpt>
      <trkpt lat="44.43291" lon="6.2971">
        <ele>1281.880773</ele>
        <time>2025-11-19T13:53:43.409Z</time>
      </trkpt>
      <trkpt lat="44.43294" lon="6.29697">
        <ele>1281.749396</ele>
        <time>2025-11-19T13:53:50.418Z</time>
      </trkpt>
      <trkpt lat="44.43301" lon="6.29686">
        <ele>1281.604703</ele>
        <time>2025-11-19T13:54:00.416Z</time>
      </trkpt>
      <trkpt lat="44.43309" lon="6.29677">
        <ele>1281.459104</ele>
        <time>2025-11-19T13:54:12.407Z</time>
      </trkpt>
      <trkpt lat="44.43316" lon="6.29668">
        <ele>1281.32254</ele>
        <time>2025-11-19T13:54:21.406Z</time>
      </trkpt>
      <trkpt lat="44.43324" lon="6.29659">
        <ele>1281.183128</ele>
        <time>2025-11-19T13:54:31.390Z</time>
      </trkpt>
      <trkpt lat="44.43333" lon="6.29652">
        <ele>1281.037312</ele>
        <time>2025-11-19T13:54:38.406Z</time>
      </trkpt>
      <trkpt lat="44.43339" lon="6.29642">
        <ele>1280.911355</ele>
        <time>2025-11-19T13:54:47.404Z</time>
      </trkpt>
      <trkpt lat="44.43348" lon="6.29636">
        <ele>1280.775754</ele>
        <time>2025-11-19T13:54:57.390Z</time>
      </trkpt>
      <trkpt lat="44.43357" lon="6.29633">
        <ele>1280.646867</ele>
        <time>2025-11-19T13:55:08.401Z</time>
      </trkpt>
      <trkpt lat="44.43366" lon="6.29627">
        <ele>1280.508276</ele>
        <time>2025-11-19T13:55:15.412Z</time>
      </trkpt>
      <trkpt lat="44.43375" lon="6.29623">
        <ele>1280.374688</ele>
        <time>2025-11-19T13:55:21.388Z</time>
      </trkpt>
      <trkpt lat="44.43384" lon="6.29617">
        <ele>1280.236559</ele>
        <time>2025-11-19T13:55:29.402Z</time>
      </trkpt>
      <trkpt lat="44.43393" lon="6.29617">
        <ele>1280.102708</ele>
        <time>2025-11-19T13:55:36.391Z</time>
      </trkpt>
      <trkpt lat="44.43403" lon="6.29614">
        <ele>1279.956972</ele>
        <time>2025-11-19T13:55:43.401Z</time>
      </trkpt>
      <trkpt lat="44.43412" lon="6.29608">
        <ele>1279.821763</ele>
        <time>2025-11-19T13:55:49.383Z</time>
      </trkpt>
      <trkpt lat="44.43421" lon="6.29603">
        <ele>1279.691552</ele>
        <time>2025-11-19T13:55:55.397Z</time>
      </trkpt>
      <trkpt lat="44.4343" lon="6.296">
        <ele>1279.564173</ele>
        <time>2025-11-19T13:56:02.387Z</time>
      </trkpt>
      <trkpt lat="44.4344" lon="6.296">
        <ele>1279.924271</ele>
        <time>2025-11-19T13:56:09.417Z</time>
      </trkpt>
      <trkpt lat="44.43451" lon="6.29598">
        <ele>1280.715149</ele>
        <time>2025-11-19T13:56:16.388Z</time>
      </trkpt>
      <trkpt lat="44.43461" lon="6.29594">
        <ele>1281.516407</ele>
        <time>2025-11-19T13:56:23.385Z</time>
      </trkpt>
      <trkpt lat="44.43472" lon="6.29592">
        <ele>1282.322051</ele>
        <time>2025-11-19T13:56:30.403Z</time>
      </trkpt>
      <trkpt lat="44.43481" lon="6.29588">
        <ele>1283.033231</ele>
        <time>2025-11-19T13:56:38.385Z</time>
      </trkpt>
      <trkpt lat="44.4349" lon="6.29586">
        <ele>1283.737417</ele>
        <time>2025-11-19T13:56:47.396Z</time>
      </trkpt>
      <trkpt lat="44.435" lon="6.29581">
        <ele>1284.499349</ele>
        <time>2025-11-19T13:56:55.391Z</time>
      </trkpt>
      <trkpt lat="44.43509" lon="6.29577">
        <ele>1285.197961</ele>
        <time>2025-11-19T13:57:03.398Z</time>
      </trkpt>
      <trkpt lat="44.43518" lon="6.29574">
        <ele>1285.90882</ele>
        <time>2025-11-19T13:57:10.420Z</time>
      </trkpt>
      <trkpt lat="44.43528" lon="6.29575">
        <ele>1286.637102</ele>
        <time>2025-11-19T13:57:18.400Z</time>
      </trkpt>
      <trkpt lat="44.43537" lon="6.29573">
        <ele>1287.343217</ele>
        <time>2025-11-19T13:57:25.396Z</time>
      </trkpt>
      <trkpt lat="44.43546" lon="6.29576">
        <ele>1288.046883</ele>
        <time>2025-11-19T13:57:31.425Z</time>
      </trkpt>
      <trkpt lat="44.43556" lon="6.29582">
        <ele>1288.798555</ele>
        <time>2025-11-19T13:57:38.399Z</time>
      </trkpt>
      <trkpt lat="44.43565" lon="6.29582">
        <ele>1289.469831</ele>
        <time>2025-11-19T13:57:45.383Z</time>
      </trkpt>
      <trkpt lat="44.43574" lon="6.29582">
        <ele>1290.200647</ele>
        <time>2025-11-19T13:57:54.404Z</time>
      </trkpt>
      <trkpt lat="44.43584" lon="6.29581">
        <ele>1290.932626</ele>
        <time>2025-11-19T13:58:02.428Z</time>
      </trkpt>
      <trkpt lat="44.43593" lon="6.2958">
        <ele>1291.613692</ele>
        <time>2025-11-19T13:58:11.411Z</time>
      </trkpt>
      <trkpt lat="44.43603" lon="6.29578">
        <ele>1292.317877</ele>
        <time>2025-11-19T13:58:18.403Z</time>
      </trkpt>
      <trkpt lat="44.43612" lon="6.29577">
        <ele>1292.773514</ele>
        <time>2025-11-19T13:58:25.437Z</time>
      </trkpt>
      <trkpt lat="44.43621" lon="6.29574">
        <ele>1291.677027</ele>
        <time>2025-11-19T13:58:33.393Z</time>
      </trkpt>
      <trkpt lat="44.43631" lon="6.29573">
        <ele>1290.589754</ele>
        <time>2025-11-19T13:58:42.413Z</time>
      </trkpt>
      <trkpt lat="44.4364" lon="6.29573">
        <ele>1289.516649</ele>
        <time>2025-11-19T13:58:48.418Z</time>
      </trkpt>
      <trkpt lat="44.4365" lon="6.29571">
        <ele>1288.463838</ele>
        <time>2025-11-19T13:58:55.385Z</time>
      </trkpt>
      <trkpt lat="44.43658" lon="6.29575">
        <ele>1287.405637</ele>
        <time>2025-11-19T13:59:05.417Z</time>
      </trkpt>
      <trkpt lat="44.43661" lon="6.29588">
        <ele>1286.30912</ele>
        <time>2025-11-19T13:59:33.397Z</time>
      </trkpt>
      <trkpt lat="44.43662" lon="6.29601">
        <ele>1285.28897</ele>
        <time>2025-11-19T13:59:40.404Z</time>
      </trkpt>
      <trkpt lat="44.43663" lon="6.29614">
        <ele>1284.233057</ele>
        <time>2025-11-19T13:59:51.420Z</time>
      </trkpt>
      <trkpt lat="44.43666" lon="6.29626">
        <ele>1283.200086</ele>
        <time>2025-11-19T14:00:01.434Z</time>
      </trkpt>
      <trkpt lat="44.43664" lon="6.29639">
        <ele>1282.096073</ele>
        <time>2025-11-19T14:00:09.405Z</time>
      </trkpt>
      <trkpt lat="44.43661" lon="6.29652">
        <ele>1280.959959</ele>
        <time>2025-11-19T14:00:18.388Z</time>
      </trkpt>
      <trkpt lat="44.43661" lon="6.29665">
        <ele>1279.910587</ele>
        <time>2025-11-19T14:00:27.398Z</time>
      </trkpt>
      <trkpt lat="44.43661" lon="6.2968">
        <ele>1278.757127</ele>
        <time>2025-11-19T14:00:40.374Z</time>
      </trkpt>
      <trkpt lat="44.43659" lon="6.29693">
        <ele>1277.639544</ele>
        <time>2025-11-19T14:00:49.382Z</time>
      </trkpt>
      <trkpt lat="44.43657" lon="6.29706">
        <ele>1276.611172</ele>
        <time>2025-11-19T14:01:00.387Z</time>
      </trkpt>
      <trkpt lat="44.43653" lon="6.29717">
        <ele>1275.583797</ele>
        <time>2025-11-19T14:01:11.430Z</time>
      </trkpt>
      <trkpt lat="44.43649" lon="6.29729">
        <ele>1274.539863</ele>
        <time>2025-11-19T14:01:18.426Z</time>
      </trkpt>
      <trkpt lat="44.43646" lon="6.29741">
        <ele>1273.494483</ele>
        <time>2025-11-19T14:01:26.415Z</time>
      </trkpt>
      <trkpt lat="44.43642" lon="6.29753">
        <ele>1272.216127</ele>
        <time>2025-11-19T14:01:40.397Z</time>
      </trkpt>
      <trkpt lat="44.43639" lon="6.29766">
        <ele>1269.743758</ele>
        <time>2025-11-19T14:01:49.409Z</time>
      </trkpt>
      <trkpt lat="44.43644" lon="6.29777">
        <ele>1267.433537</ele>
        <time>2025-11-19T14:02:06.394Z</time>
      </trkpt>
      <trkpt lat="44.43652" lon="6.29782">
        <ele>1265.18504</ele>
        <time>2025-11-19T14:02:21.388Z</time>
      </trkpt>
      <trkpt lat="44.43661" lon="6.29784">
        <ele>1262.915997</ele>
        <time>2025-11-19T14:02:37.386Z</time>
      </trkpt>
      <trkpt lat="44.4367" lon="6.29788">
        <ele>1260.636416</ele>
        <time>2025-11-19T14:02:46.391Z</time>
      </trkpt>
      <trkpt lat="44.43679" lon="6.29792">
        <ele>1258.250466</ele>
        <time>2025-11-19T14:02:55.390Z</time>
      </trkpt>
      <trkpt lat="44.43688" lon="6.29797">
        <ele>1255.832703</ele>
        <time>2025-11-19T14:03:06.398Z</time>
      </trkpt>
      <trkpt lat="44.43696" lon="6.29802">
        <ele>1253.484178</ele>
        <time>2025-11-19T14:03:18.390Z</time>
      </trkpt>
      <trkpt lat="44.43705" lon="6.29808">
        <ele>1250.969156</ele>
        <time>2025-11-19T14:03:30.394Z</time>
      </trkpt>
      <trkpt lat="44.43715" lon="6.29811">
        <ele>1248.527557</ele>
        <time>2025-11-19T14:03:42.400Z</time>
      </trkpt>
      <trkpt lat="44.43724" lon="6.29811">
        <ele>1246.195279</ele>
        <time>2025-11-19T14:03:57.390Z</time>
      </trkpt>
      <trkpt lat="44.43733" lon="6.29811">
        <ele>1243.913693</ele>
        <time>2025-11-19T14:04:10.377Z</time>
      </trkpt>
      <trkpt lat="44.43743" lon="6.29808">
        <ele>1241.444088</ele>
        <time>2025-11-19T14:04:29.391Z</time>
      </trkpt>
      <trkpt lat="44.43752" lon="6.29809">
        <ele>1239.160045</ele>
        <time>2025-11-19T14:04:51.366Z</time>
      </trkpt>
      <trkpt lat="44.43762" lon="6.29809">
        <ele>1236.802226</ele>
        <time>2025-11-19T14:05:04.379Z</time>
      </trkpt>
      <trkpt lat="44.4377" lon="6.29804">
        <ele>1234.471333</ele>
        <time>2025-11-19T14:05:18.388Z</time>
      </trkpt>
      <trkpt lat="44.4378" lon="6.29804">
        <ele>1231.962576</ele>
        <time>2025-11-19T14:05:28.370Z</time>
      </trkpt>
      <trkpt lat="44.4379" lon="6.29801">
        <ele>1229.594293</ele>
        <time>2025-11-19T14:05:40.378Z</time>
      </trkpt>
      <trkpt lat="44.43799" lon="6.29799">
        <ele>1227.332444</ele>
        <time>2025-11-19T14:05:49.382Z</time>
      </trkpt>
      <trkpt lat="44.4381" lon="6.29798">
        <ele>1225.656728</ele>
        <time>2025-11-19T14:05:57.386Z</time>
      </trkpt>
      <trkpt lat="44.4382" lon="6.29798">
        <ele>1224.012619</ele>
        <time>2025-11-19T14:06:05.380Z</time>
      </trkpt>
      <trkpt lat="44.4383" lon="6.29803">
        <ele>1222.463512</ele>
        <time>2025-11-19T14:06:17.388Z</time>
      </trkpt>
      <trkpt lat="44.43839" lon="6.29807">
        <ele>1220.931101</ele>
        <time>2025-11-19T14:06:27.398Z</time>
      </trkpt>
      <trkpt lat="44.43848" lon="6.29812">
        <ele>1219.488733</ele>
        <time>2025-11-19T14:06:37.388Z</time>
      </trkpt>
      <trkpt lat="44.43856" lon="6.29818">
        <ele>1218.010805</ele>
        <time>2025-11-19T14:06:47.378Z</time>
      </trkpt>
      <trkpt lat="44.43865" lon="6.29825">
        <ele>1216.495068</ele>
        <time>2025-11-19T14:06:52.372Z</time>
      </trkpt>
      <trkpt lat="44.43874" lon="6.29832">
        <ele>1214.885669</ele>
        <time>2025-11-19T14:07:00.370Z</time>
      </trkpt>
      <trkpt lat="44.43883" lon="6.29838">
        <ele>1213.362629</ele>
        <time>2025-11-19T14:07:09.377Z</time>
      </trkpt>
      <trkpt lat="44.4389" lon="6.29845">
        <ele>1211.90672</ele>
        <time>2025-11-19T14:07:17.371Z</time>
      </trkpt>
      <trkpt lat="44.43899" lon="6.2985">
        <ele>1210.515305</ele>
        <time>2025-11-19T14:07:26.380Z</time>
      </trkpt>
      <trkpt lat="44.43907" lon="6.29856">
        <ele>1208.99236</ele>
        <time>2025-11-19T14:07:36.390Z</time>
      </trkpt>
      <trkpt lat="44.43916" lon="6.29861">
        <ele>1207.498633</ele>
        <time>2025-11-19T14:07:46.386Z</time>
      </trkpt>
      <trkpt lat="44.43925" lon="6.29868">
        <ele>1205.984337</ele>
        <time>2025-11-19T14:07:57.376Z</time>
      </trkpt>
      <trkpt lat="44.43933" lon="6.29876">
        <ele>1204.451024</ele>
        <time>2025-11-19T14:08:08.384Z</time>
      </trkpt>
      <trkpt lat="44.43941" lon="6.29871">
        <ele>1203.043878</ele>
        <time>2025-11-19T14:08:17.379Z</time>
      </trkpt>
      <trkpt lat="44.43951" lon="6.29867">
        <ele>1201.552986</ele>
        <time>2025-11-19T14:08:27.397Z</time>
      </trkpt>
      <trkpt lat="44.4396" lon="6.2987">
        <ele>1200.042502</ele>
        <time>2025-11-19T14:08:37.370Z</time>
      </trkpt>
      <trkpt lat="44.43965" lon="6.29882">
        <ele>1198.098583</ele>
        <time>2025-11-19T14:08:48.384Z</time>
      </trkpt>
      <trkpt lat="44.43969" lon="6.29893">
        <ele>1196.019041</ele>
        <time>2025-11-19T14:09:01.372Z</time>
      </trkpt>
      <trkpt lat="44.43972" lon="6.29906">
        <ele>1193.968612</ele>
        <time>2025-11-19T14:09:12.394Z</time>
      </trkpt>
      <trkpt lat="44.43977" lon="6.29917">
        <ele>1191.834584</ele>
        <time>2025-11-19T14:09:22.377Z</time>
      </trkpt>
      <trkpt lat="44.43981" lon="6.29929">
        <ele>1189.575455</ele>
        <time>2025-11-19T14:09:31.383Z</time>
      </trkpt>
      <trkpt lat="44.43988" lon="6.29939">
        <ele>1187.352918</ele>
        <time>2025-11-19T14:09:40.388Z</time>
      </trkpt>
      <trkpt lat="44.43994" lon="6.2995">
        <ele>1185.208716</ele>
        <time>2025-11-19T14:09:52.365Z</time>
      </trkpt>
      <trkpt lat="44.44" lon="6.2996">
        <ele>1183.036238</ele>
        <time>2025-11-19T14:10:03.400Z</time>
      </trkpt>
      <trkpt lat="44.44005" lon="6.29971">
        <ele>1180.99961</ele>
        <time>2025-11-19T14:10:25.377Z</time>
      </trkpt>
      <trkpt lat="44.44021" lon="6.29989">
        <ele>1176.382074</ele>
        <time>2025-11-19T14:11:37.427Z</time>
      </trkpt>
      <trkpt lat="44.44035" lon="6.30005">
        <ele>1172.3367</ele>
        <time>2025-11-19T14:12:12.434Z</time>
      </trkpt>
      <trkpt lat="44.44044" lon="6.30017">
        <ele>1169.486078</ele>
        <time>2025-11-19T14:14:17.424Z</time>
      </trkpt>
      <trkpt lat="44.44058" lon="6.30021">
        <ele>1166.343705</ele>
        <time>2025-11-19T14:14:49.378Z</time>
      </trkpt>
      <trkpt lat="44.44065" lon="6.30029">
        <ele>1164.275843</ele>
        <time>2025-11-19T14:14:57.405Z</time>
      </trkpt>
      <trkpt lat="44.44067" lon="6.30041">
        <ele>1162.168874</ele>
        <time>2025-11-19T14:15:05.403Z</time>
      </trkpt>
      <trkpt lat="44.44065" lon="6.30054">
        <ele>1160.021568</ele>
        <time>2025-11-19T14:15:15.438Z</time>
      </trkpt>
      <trkpt lat="44.44057" lon="6.30062">
        <ele>1158.031262</ele>
        <time>2025-11-19T14:15:36.410Z</time>
      </trkpt>
      <trkpt lat="44.44066" lon="6.30068">
        <ele>1156.089554</ele>
        <time>2025-11-19T14:16:02.418Z</time>
      </trkpt>
      <trkpt lat="44.44074" lon="6.30062">
        <ele>1154.192347</ele>
        <time>2025-11-19T14:16:13.401Z</time>
      </trkpt>
      <trkpt lat="44.44083" lon="6.30058">
        <ele>1152.097772</ele>
        <time>2025-11-19T14:16:23.418Z</time>
      </trkpt>
      <trkpt lat="44.44091" lon="6.30051">
        <ele>1150.180676</ele>
        <time>2025-11-19T14:16:34.413Z</time>
      </trkpt>
      <trkpt lat="44.44098" lon="6.30044">
        <ele>1148.271412</ele>
        <time>2025-11-19T14:16:43.413Z</time>
      </trkpt>
      <trkpt lat="44.44107" lon="6.30048">
        <ele>1146.257317</ele>
        <time>2025-11-19T14:16:58.432Z</time>
      </trkpt>
      <trkpt lat="44.44112" lon="6.3006">
        <ele>1144.265787</ele>
        <time>2025-11-19T14:17:08.411Z</time>
      </trkpt>
      <trkpt lat="44.44111" lon="6.30073">
        <ele>1142.253371</ele>
        <time>2025-11-19T14:17:21.417Z</time>
      </trkpt>
      <trkpt lat="44.44119" lon="6.30081">
        <ele>1140.275538</ele>
        <time>2025-11-19T14:17:31.406Z</time>
      </trkpt>
      <trkpt lat="44.44128" lon="6.30078">
        <ele>1138.226302</ele>
        <time>2025-11-19T14:17:53.419Z</time>
      </trkpt>
      <trkpt lat="44.44136" lon="6.30072">
        <ele>1136.303565</ele>
        <time>2025-11-19T14:18:06.408Z</time>
      </trkpt>
      <trkpt lat="44.44143" lon="6.30064">
        <ele>1134.392622</ele>
        <time>2025-11-19T14:18:18.419Z</time>
      </trkpt>
      <trkpt lat="44.44151" lon="6.30057">
        <ele>1132.386647</ele>
        <time>2025-11-19T14:18:25.390Z</time>
      </trkpt>
      <trkpt lat="44.44158" lon="6.30066">
        <ele>1130.332349</ele>
        <time>2025-11-19T14:18:47.411Z</time>
      </trkpt>
      <trkpt lat="44.44165" lon="6.30077">
        <ele>1128.275034</ele>
        <time>2025-11-19T14:19:02.392Z</time>
      </trkpt>
      <trkpt lat="44.44165" lon="6.30089">
        <ele>1126.348941</ele>
        <time>2025-11-19T14:19:14.393Z</time>
      </trkpt>
      <trkpt lat="44.44162" lon="6.30103">
        <ele>1124.235724</ele>
        <time>2025-11-19T14:19:27.395Z</time>
      </trkpt>
      <trkpt lat="44.44156" lon="6.30113">
        <ele>1122.197539</ele>
        <time>2025-11-19T14:19:41.407Z</time>
      </trkpt>
      <trkpt lat="44.4415" lon="6.30124">
        <ele>1120.504282</ele>
        <time>2025-11-19T14:19:51.405Z</time>
      </trkpt>
      <trkpt lat="44.44142" lon="6.30131">
        <ele>1118.999892</ele>
        <time>2025-11-19T14:20:00.389Z</time>
      </trkpt>
      <trkpt lat="44.44135" lon="6.30138">
        <ele>1117.565809</ele>
        <time>2025-11-19T14:20:09.398Z</time>
      </trkpt>
      <trkpt lat="44.44127" lon="6.30147">
        <ele>1116.071964</ele>
        <time>2025-11-19T14:20:20.423Z</time>
      </trkpt>
      <trkpt lat="44.44119" lon="6.30153">
        <ele>1114.642939</ele>
        <time>2025-11-19T14:20:29.394Z</time>
      </trkpt>
      <trkpt lat="44.44112" lon="6.30161">
        <ele>1113.142125</ele>
        <time>2025-11-19T14:20:41.394Z</time>
      </trkpt>
      <trkpt lat="44.44117" lon="6.30173">
        <ele>1111.683224</ele>
        <time>2025-11-19T14:21:10.445Z</time>
      </trkpt>
      <trkpt lat="44.44125" lon="6.30177">
        <ele>1110.284196</ele>
        <time>2025-11-19T14:21:28.403Z</time>
      </trkpt>
      <trkpt lat="44.44134" lon="6.3018">
        <ele>1108.795798</ele>
        <time>2025-11-19T14:21:40.389Z</time>
      </trkpt>
      <trkpt lat="44.44143" lon="6.30184">
        <ele>1107.356582</ele>
        <time>2025-11-19T14:21:58.439Z</time>
      </trkpt>
      <trkpt lat="44.44153" lon="6.30185">
        <ele>1105.82418</ele>
        <time>2025-11-19T14:22:13.396Z</time>
      </trkpt>
      <trkpt lat="44.44171" lon="6.30196">
        <ele>1102.826503</ele>
        <time>2025-11-19T14:23:20.401Z</time>
      </trkpt>
      <trkpt lat="44.44166" lon="6.30208">
        <ele>1101.404343</ele>
        <time>2025-11-19T14:23:29.408Z</time>
      </trkpt>
      <trkpt lat="44.4416" lon="6.30218">
        <ele>1099.870992</ele>
        <time>2025-11-19T14:23:36.420Z</time>
      </trkpt>
      <trkpt lat="44.44168" lon="6.30211">
        <ele>1098.289141</ele>
        <time>2025-11-19T14:23:47.417Z</time>
      </trkpt>
      <trkpt lat="44.44178" lon="6.30209">
        <ele>1096.84251</ele>
        <time>2025-11-19T14:24:00.408Z</time>
      </trkpt>
      <trkpt lat="44.44186" lon="6.30201">
        <ele>1095.325874</ele>
        <time>2025-11-19T14:24:09.397Z</time>
      </trkpt>
      <trkpt lat="44.44194" lon="6.30197">
        <ele>1093.911485</ele>
        <time>2025-11-19T14:24:17.386Z</time>
      </trkpt>
      <trkpt lat="44.44203" lon="6.30192">
        <ele>1092.763437</ele>
        <time>2025-11-19T14:24:27.426Z</time>
      </trkpt>
      <trkpt lat="44.44213" lon="6.3019">
        <ele>1091.914836</ele>
        <time>2025-11-19T14:24:36.392Z</time>
      </trkpt>
      <trkpt lat="44.44222" lon="6.30189">
        <ele>1091.113489</ele>
        <time>2025-11-19T14:24:46.375Z</time>
      </trkpt>
      <trkpt lat="44.44231" lon="6.30182">
        <ele>1090.243624</ele>
        <time>2025-11-19T14:24:55.418Z</time>
      </trkpt>
      <trkpt lat="44.4424" lon="6.30178">
        <ele>1089.38996</ele>
        <time>2025-11-19T14:25:03.407Z</time>
      </trkpt>
      <trkpt lat="44.4425" lon="6.30173">
        <ele>1088.507522</ele>
        <time>2025-11-19T14:25:10.425Z</time>
      </trkpt>
      <trkpt lat="44.4426" lon="6.30171">
        <ele>1087.615744</ele>
        <time>2025-11-19T14:25:20.415Z</time>
      </trkpt>
      <trkpt lat="44.44268" lon="6.30165">
        <ele>1086.806937</ele>
        <time>2025-11-19T14:25:28.366Z</time>
      </trkpt>
      <trkpt lat="44.44276" lon="6.30159">
        <ele>1085.95831</ele>
        <time>2025-11-19T14:25:37.423Z</time>
      </trkpt>
      <trkpt lat="44.44286" lon="6.30153">
        <ele>1085.07921</ele>
        <time>2025-11-19T14:25:46.394Z</time>
      </trkpt>
      <trkpt lat="44.44294" lon="6.30148">
        <ele>1084.251878</ele>
        <time>2025-11-19T14:25:55.418Z</time>
      </trkpt>
      <trkpt lat="44.44303" lon="6.30142">
        <ele>1083.398066</ele>
        <time>2025-11-19T14:26:05.390Z</time>
      </trkpt>
      <trkpt lat="44.44313" lon="6.30139">
        <ele>1082.527317</ele>
        <time>2025-11-19T14:26:15.424Z</time>
      </trkpt>
      <trkpt lat="44.44322" lon="6.30136">
        <ele>1081.719284</ele>
        <time>2025-11-19T14:26:23.420Z</time>
      </trkpt>
      <trkpt lat="44.44331" lon="6.30131">
        <ele>1080.835461</ele>
        <time>2025-11-19T14:26:31.397Z</time>
      </trkpt>
      <trkpt lat="44.44339" lon="6.30124">
        <ele>1080.0462</ele>
        <time>2025-11-19T14:26:39.391Z</time>
      </trkpt>
      <trkpt lat="44.44345" lon="6.30115">
        <ele>1079.248683</ele>
        <time>2025-11-19T14:26:47.414Z</time>
      </trkpt>
      <trkpt lat="44.44342" lon="6.30103">
        <ele>1078.454375</ele>
        <time>2025-11-19T14:27:00.398Z</time>
      </trkpt>
      <trkpt lat="44.44339" lon="6.30089">
        <ele>1077.541741</ele>
        <time>2025-11-19T14:27:10.381Z</time>
      </trkpt>
      <trkpt lat="44.44337" lon="6.30077">
        <ele>1077.215074</ele>
        <time>2025-11-19T14:27:17.410Z</time>
      </trkpt>
      <trkpt lat="44.44336" lon="6.30064">
        <ele>1076.934762</ele>
        <time>2025-11-19T14:27:25.401Z</time>
      </trkpt>
      <trkpt lat="44.44342" lon="6.30053">
        <ele>1076.642438</ele>
        <time>2025-11-19T14:27:33.405Z</time>
      </trkpt>
      <trkpt lat="44.44352" lon="6.30053">
        <ele>1076.349606</ele>
        <time>2025-11-19T14:27:42.433Z</time>
      </trkpt>
      <trkpt lat="44.4436" lon="6.30061">
        <ele>1076.049156</ele>
        <time>2025-11-19T14:27:51.418Z</time>
      </trkpt>
      <trkpt lat="44.44367" lon="6.3007">
        <ele>1075.76089</ele>
        <time>2025-11-19T14:27:59.407Z</time>
      </trkpt>
      <trkpt lat="44.44376" lon="6.30076">
        <ele>1075.474118</ele>
        <time>2025-11-19T14:28:07.402Z</time>
      </trkpt>
      <trkpt lat="44.44385" lon="6.30077">
        <ele>1075.194516</ele>
        <time>2025-11-19T14:28:15.426Z</time>
      </trkpt>
      <trkpt lat="44.44394" lon="6.3008">
        <ele>1074.92424</ele>
        <time>2025-11-19T14:28:24.392Z</time>
      </trkpt>
      <trkpt lat="44.44403" lon="6.30076">
        <ele>1074.654052</ele>
        <time>2025-11-19T14:28:32.414Z</time>
      </trkpt>
      <trkpt lat="44.44412" lon="6.30069">
        <ele>1074.361403</ele>
        <time>2025-11-19T14:28:43.392Z</time>
      </trkpt>
      <trkpt lat="44.4442" lon="6.30063">
        <ele>1074.085137</ele>
        <time>2025-11-19T14:28:54.417Z</time>
      </trkpt>
      <trkpt lat="44.44429" lon="6.30057">
        <ele>1073.779594</ele>
        <time>2025-11-19T14:29:02.401Z</time>
      </trkpt>
      <trkpt lat="44.44438" lon="6.30051">
        <ele>1073.489908</ele>
        <time>2025-11-19T14:29:09.409Z</time>
      </trkpt>
      <trkpt lat="44.44447" lon="6.30044">
        <ele>1073.200805</ele>
        <time>2025-11-19T14:29:16.385Z</time>
      </trkpt>
      <trkpt lat="44.44455" lon="6.30036">
        <ele>1072.913698</ele>
        <time>2025-11-19T14:29:23.415Z</time>
      </trkpt>
      <trkpt lat="44.44464" lon="6.3003">
        <ele>1072.615153</ele>
        <time>2025-11-19T14:29:33.409Z</time>
      </trkpt>
      <trkpt lat="44.44472" lon="6.30025">
        <ele>1072.330982</ele>
        <time>2025-11-19T14:29:44.391Z</time>
      </trkpt>
      <trkpt lat="44.44482" lon="6.3002">
        <ele>1071.940714</ele>
        <time>2025-11-19T14:29:54.400Z</time>
      </trkpt>
      <trkpt lat="44.44491" lon="6.30016">
        <ele>1071.426195</ele>
        <time>2025-11-19T14:30:02.418Z</time>
      </trkpt>
      <trkpt lat="44.445" lon="6.30013">
        <ele>1070.87182</ele>
        <time>2025-11-19T14:30:11.413Z</time>
      </trkpt>
      <trkpt lat="44.44509" lon="6.30006">
        <ele>1070.300096</ele>
        <time>2025-11-19T14:30:24.399Z</time>
      </trkpt>
      <trkpt lat="44.44519" lon="6.30006">
        <ele>1069.778916</ele>
        <time>2025-11-19T14:30:30.428Z</time>
      </trkpt>
      <trkpt lat="44.44529" lon="6.30005">
        <ele>1069.229188</ele>
        <time>2025-11-19T14:30:37.407Z</time>
      </trkpt>
      <trkpt lat="44.44539" lon="6.30003">
        <ele>1068.661693</ele>
        <time>2025-11-19T14:30:44.405Z</time>
      </trkpt>
      <trkpt lat="44.44548" lon="6.3">
        <ele>1068.101596</ele>
        <time>2025-11-19T14:30:51.421Z</time>
      </trkpt>
      <trkpt lat="44.44557" lon="6.29995">
        <ele>1067.592425</ele>
        <time>2025-11-19T14:30:59.415Z</time>
      </trkpt>
      <trkpt lat="44.44566" lon="6.29992">
        <ele>1067.066847</ele>
        <time>2025-11-19T14:31:07.415Z</time>
      </trkpt>
      <trkpt lat="44.44574" lon="6.29986">
        <ele>1066.541957</ele>
        <time>2025-11-19T14:31:14.416Z</time>
      </trkpt>
      <trkpt lat="44.44584" lon="6.29981">
        <ele>1065.967825</ele>
        <time>2025-11-19T14:31:20.414Z</time>
      </trkpt>
      <trkpt lat="44.44594" lon="6.29978">
        <ele>1065.383103</ele>
        <time>2025-11-19T14:31:32.383Z</time>
      </trkpt>
      <trkpt lat="44.44601" lon="6.2997">
        <ele>1064.863451</ele>
        <time>2025-11-19T14:31:43.408Z</time>
      </trkpt>
      <trkpt lat="44.44609" lon="6.29964">
        <ele>1064.340407</ele>
        <time>2025-11-19T14:31:50.398Z</time>
      </trkpt>
      <trkpt lat="44.44615" lon="6.29954">
        <ele>1063.835737</ele>
        <time>2025-11-19T14:32:03.406Z</time>
      </trkpt>
      <trkpt lat="44.4462" lon="6.29942">
        <ele>1063.28177</ele>
        <time>2025-11-19T14:32:13.395Z</time>
      </trkpt>
      <trkpt lat="44.44625" lon="6.29931">
        <ele>1062.751277</ele>
        <time>2025-11-19T14:32:20.409Z</time>
      </trkpt>
      <trkpt lat="44.44627" lon="6.29918">
        <ele>1062.223085</ele>
        <time>2025-11-19T14:32:30.385Z</time>
      </trkpt>
      <trkpt lat="44.44634" lon="6.29908">
        <ele>1061.846027</ele>
        <time>2025-11-19T14:32:38.417Z</time>
      </trkpt>
      <trkpt lat="44.44639" lon="6.29898">
        <ele>1061.548206</ele>
        <time>2025-11-19T14:32:47.405Z</time>
      </trkpt>
      <trkpt lat="44.44648" lon="6.29889">
        <ele>1061.214805</ele>
        <time>2025-11-19T14:32:56.418Z</time>
      </trkpt>
      <trkpt lat="44.44657" lon="6.29883">
        <ele>1060.880757</ele>
        <time>2025-11-19T14:33:05.420Z</time>
      </trkpt>
      <trkpt lat="44.44665" lon="6.29876">
        <ele>1060.575215</ele>
        <time>2025-11-19T14:33:13.402Z</time>
      </trkpt>
      <trkpt lat="44.44673" lon="6.29868">
        <ele>1060.258848</ele>
        <time>2025-11-19T14:33:22.408Z</time>
      </trkpt>
      <trkpt lat="44.44681" lon="6.29863">
        <ele>1059.95802</ele>
        <time>2025-11-19T14:33:29.400Z</time>
      </trkpt>
      <trkpt lat="44.4469" lon="6.29857">
        <ele>1059.635736</ele>
        <time>2025-11-19T14:33:36.405Z</time>
      </trkpt>
      <trkpt lat="44.44699" lon="6.29851">
        <ele>1059.323365</ele>
        <time>2025-11-19T14:33:43.438Z</time>
      </trkpt>
      <trkpt lat="44.44709" lon="6.29847">
        <ele>1058.982949</ele>
        <time>2025-11-19T14:33:51.413Z</time>
      </trkpt>
      <trkpt lat="44.44718" lon="6.29841">
        <ele>1058.678222</ele>
        <time>2025-11-19T14:33:57.418Z</time>
      </trkpt>
      <trkpt lat="44.44726" lon="6.29839">
        <ele>1058.382874</ele>
        <time>2025-11-19T14:34:06.373Z</time>
      </trkpt>
      <trkpt lat="44.44735" lon="6.29833">
        <ele>1058.084939</ele>
        <time>2025-11-19T14:34:14.409Z</time>
      </trkpt>
      <trkpt lat="44.44743" lon="6.29827">
        <ele>1057.783219</ele>
        <time>2025-11-19T14:34:22.401Z</time>
      </trkpt>
      <trkpt lat="44.44752" lon="6.29825">
        <ele>1057.478355</ele>
        <time>2025-11-19T14:34:28.401Z</time>
      </trkpt>
      <trkpt lat="44.44761" lon="6.29826">
        <ele>1057.182306</ele>
        <time>2025-11-19T14:34:59.370Z</time>
      </trkpt>
      <trkpt lat="44.4477" lon="6.29826">
        <ele>1056.886583</ele>
        <time>2025-11-19T14:35:07.414Z</time>
      </trkpt>
      <trkpt lat="44.4478" lon="6.29828">
        <ele>1056.56631</ele>
        <time>2025-11-19T14:35:15.374Z</time>
      </trkpt>
      <trkpt lat="44.44789" lon="6.29829">
        <ele>1056.26735</ele>
        <time>2025-11-19T14:35:25.381Z</time>
      </trkpt>
      <trkpt lat="44.44798" lon="6.29833">
        <ele>1055.956906</ele>
        <time>2025-11-19T14:35:34.376Z</time>
      </trkpt>
      <trkpt lat="44.44807" lon="6.29837">
        <ele>1055.642537</ele>
        <time>2025-11-19T14:35:43.398Z</time>
      </trkpt>
      <trkpt lat="44.44816" lon="6.29835">
        <ele>1055.3363</ele>
        <time>2025-11-19T14:35:52.399Z</time>
      </trkpt>
      <trkpt lat="44.44823" lon="6.29824">
        <ele>1055.003174</ele>
        <time>2025-11-19T14:36:01.423Z</time>
      </trkpt>
      <trkpt lat="44.4483" lon="6.29816">
        <ele>1054.695034</ele>
        <time>2025-11-19T14:36:28.398Z</time>
      </trkpt>
      <trkpt lat="44.44836" lon="6.29805">
        <ele>1054.366324</ele>
        <time>2025-11-19T14:36:40.418Z</time>
      </trkpt>
      <trkpt lat="44.44842" lon="6.29795">
        <ele>1054.054475</ele>
        <time>2025-11-19T14:36:51.422Z</time>
      </trkpt>
      <trkpt lat="44.44849" lon="6.29785">
        <ele>1053.719744</ele>
        <time>2025-11-19T14:36:58.389Z</time>
      </trkpt>
      <trkpt lat="44.44855" lon="6.29774">
        <ele>1053.40098</ele>
        <time>2025-11-19T14:37:06.419Z</time>
      </trkpt>
      <trkpt lat="44.44864" lon="6.29767">
        <ele>1053.064538</ele>
        <time>2025-11-19T14:37:12.427Z</time>
      </trkpt>
      <trkpt lat="44.44873" lon="6.29762">
        <ele>1052.747011</ele>
        <time>2025-11-19T14:37:17.388Z</time>
      </trkpt>
      <trkpt lat="44.44882" lon="6.29755">
        <ele>1052.401862</ele>
        <time>2025-11-19T14:37:23.387Z</time>
      </trkpt>
      <trkpt lat="44.44891" lon="6.29752">
        <ele>1052.082366</ele>
        <time>2025-11-19T14:37:29.406Z</time>
      </trkpt>
      <trkpt lat="44.449" lon="6.29746">
        <ele>1051.739476</ele>
        <time>2025-11-19T14:37:36.389Z</time>
      </trkpt>
      <trkpt lat="44.44907" lon="6.29736">
        <ele>1051.420191</ele>
        <time>2025-11-19T14:37:45.380Z</time>
      </trkpt>
      <trkpt lat="44.44912" lon="6.29724">
        <ele>1051.08333</ele>
        <time>2025-11-19T14:37:52.390Z</time>
      </trkpt>
      <trkpt lat="44.44919" lon="6.29713">
        <ele>1050.732622</ele>
        <time>2025-11-19T14:37:59.420Z</time>
      </trkpt>
      <trkpt lat="44.44926" lon="6.29704">
        <ele>1050.417557</ele>
        <time>2025-11-19T14:38:07.405Z</time>
      </trkpt>
      <trkpt lat="44.44933" lon="6.29696">
        <ele>1049.91289</ele>
        <time>2025-11-19T14:38:28.396Z</time>
      </trkpt>
      <trkpt lat="44.44939" lon="6.29685">
        <ele>1049.142999</ele>
        <time>2025-11-19T14:38:36.421Z</time>
      </trkpt>
      <trkpt lat="44.44947" lon="6.29676">
        <ele>1048.364436</ele>
        <time>2025-11-19T14:38:44.438Z</time>
      </trkpt>
      <trkpt lat="44.44955" lon="6.29669">
        <ele>1047.61854</ele>
        <time>2025-11-19T14:38:53.415Z</time>
      </trkpt>
      <trkpt lat="44.44963" lon="6.29663">
        <ele>1046.877972</ele>
        <time>2025-11-19T14:39:02.401Z</time>
      </trkpt>
      <trkpt lat="44.4497" lon="6.29655">
        <ele>1046.163102</ele>
        <time>2025-11-19T14:39:10.402Z</time>
      </trkpt>
      <trkpt lat="44.44978" lon="6.29648">
        <ele>1045.397836</ele>
        <time>2025-11-19T14:39:18.401Z</time>
      </trkpt>
      <trkpt lat="44.44988" lon="6.29642">
        <ele>1044.615678</ele>
        <time>2025-11-19T14:39:25.391Z</time>
      </trkpt>
      <trkpt lat="44.44996" lon="6.29637">
        <ele>1043.908432</ele>
        <time>2025-11-19T14:39:33.393Z</time>
      </trkpt>
      <trkpt lat="44.45005" lon="6.2963">
        <ele>1043.121448</ele>
        <time>2025-11-19T14:39:39.411Z</time>
      </trkpt>
      <trkpt lat="44.45012" lon="6.29623">
        <ele>1042.38446</ele>
        <time>2025-11-19T14:39:45.397Z</time>
      </trkpt>
      <trkpt lat="44.45019" lon="6.29615">
        <ele>1041.650749</ele>
        <time>2025-11-19T14:39:51.396Z</time>
      </trkpt>
      <trkpt lat="44.45025" lon="6.29605">
        <ele>1040.925583</ele>
        <time>2025-11-19T14:39:57.395Z</time>
      </trkpt>
      <trkpt lat="44.45032" lon="6.29594">
        <ele>1040.110863</ele>
        <time>2025-11-19T14:40:04.387Z</time>
      </trkpt>
      <trkpt lat="44.4504" lon="6.29588">
        <ele>1039.393655</ele>
        <time>2025-11-19T14:40:11.391Z</time>
      </trkpt>
      <trkpt lat="44.45049" lon="6.29583">
        <ele>1038.633381</ele>
        <time>2025-11-19T14:40:18.382Z</time>
      </trkpt>
      <trkpt lat="44.45057" lon="6.29575">
        <ele>1037.84224</ele>
        <time>2025-11-19T14:40:27.397Z</time>
      </trkpt>
      <trkpt lat="44.45066" lon="6.29571">
        <ele>1037.079355</ele>
        <time>2025-11-19T14:40:34.399Z</time>
      </trkpt>
      <trkpt lat="44.45075" lon="6.29565">
        <ele>1036.345816</ele>
        <time>2025-11-19T14:40:40.396Z</time>
      </trkpt>
      <trkpt lat="44.45084" lon="6.29559">
        <ele>1035.336255</ele>
        <time>2025-11-19T14:40:45.414Z</time>
      </trkpt>
      <trkpt lat="44.45091" lon="6.29552">
        <ele>1034.293055</ele>
        <time>2025-11-19T14:40:51.399Z</time>
      </trkpt>
      <trkpt lat="44.451" lon="6.29546">
        <ele>1033.187461</ele>
        <time>2025-11-19T14:40:58.454Z</time>
      </trkpt>
      <trkpt lat="44.45108" lon="6.29541">
        <ele>1032.134376</ele>
        <time>2025-11-19T14:41:05.396Z</time>
      </trkpt>
      <trkpt lat="44.45117" lon="6.29535">
        <ele>1031.08436</ele>
        <time>2025-11-19T14:41:11.387Z</time>
      </trkpt>
      <trkpt lat="44.45126" lon="6.29531">
        <ele>1029.966205</ele>
        <time>2025-11-19T14:41:18.427Z</time>
      </trkpt>
      <trkpt lat="44.45134" lon="6.29525">
        <ele>1028.874816</ele>
        <time>2025-11-19T14:41:25.396Z</time>
      </trkpt>
      <trkpt lat="44.45143" lon="6.29519">
        <ele>1027.814627</ele>
        <time>2025-11-19T14:41:32.398Z</time>
      </trkpt>
      <trkpt lat="44.45152" lon="6.29516">
        <ele>1026.758464</ele>
        <time>2025-11-19T14:41:39.419Z</time>
      </trkpt>
      <trkpt lat="44.45162" lon="6.29513">
        <ele>1025.559524</ele>
        <time>2025-11-19T14:41:48.401Z</time>
      </trkpt>
      <trkpt lat="44.45172" lon="6.2951">
        <ele>1024.384846</ele>
        <time>2025-11-19T14:41:55.401Z</time>
      </trkpt>
      <trkpt lat="44.45182" lon="6.29509">
        <ele>1023.236864</ele>
        <time>2025-11-19T14:42:03.407Z</time>
      </trkpt>
      <trkpt lat="44.45191" lon="6.29508">
        <ele>1022.174565</ele>
        <time>2025-11-19T14:42:10.405Z</time>
      </trkpt>
      <trkpt lat="44.45201" lon="6.29505">
        <ele>1021.016193</ele>
        <time>2025-11-19T14:42:17.411Z</time>
      </trkpt>
      <trkpt lat="44.45211" lon="6.29501">
        <ele>1019.852095</ele>
        <time>2025-11-19T14:42:25.426Z</time>
      </trkpt>
      <trkpt lat="44.4522" lon="6.29498">
        <ele>1018.81334</ele>
        <time>2025-11-19T14:42:31.439Z</time>
      </trkpt>
      <trkpt lat="44.45228" lon="6.29493">
        <ele>1017.756732</ele>
        <time>2025-11-19T14:42:37.389Z</time>
      </trkpt>
      <trkpt lat="44.45235" lon="6.29484">
        <ele>1016.604713</ele>
        <time>2025-11-19T14:42:44.409Z</time>
      </trkpt>
      <trkpt lat="44.45241" lon="6.29472">
        <ele>1015.484009</ele>
        <time>2025-11-19T14:42:52.411Z</time>
      </trkpt>
      <trkpt lat="44.45247" lon="6.29461">
        <ele>1014.625335</ele>
        <time>2025-11-19T14:42:59.427Z</time>
      </trkpt>
      <trkpt lat="44.45253" lon="6.2945">
        <ele>1013.815259</ele>
        <time>2025-11-19T14:43:07.411Z</time>
      </trkpt>
      <trkpt lat="44.45254" lon="6.29436">
        <ele>1013.004243</ele>
        <time>2025-11-19T14:43:15.409Z</time>
      </trkpt>
      <trkpt lat="44.4526" lon="6.29426">
        <ele>1012.271352</ele>
        <time>2025-11-19T14:43:23.441Z</time>
      </trkpt>
      <trkpt lat="44.45269" lon="6.29422">
        <ele>1011.467205</ele>
        <time>2025-11-19T14:43:31.413Z</time>
      </trkpt>
      <trkpt lat="44.45278" lon="6.29418">
        <ele>1010.725923</ele>
        <time>2025-11-19T14:43:37.399Z</time>
      </trkpt>
      <trkpt lat="44.45287" lon="6.29416">
        <ele>1009.990146</ele>
        <time>2025-11-19T14:43:44.423Z</time>
      </trkpt>
      <trkpt lat="44.45295" lon="6.29411">
        <ele>1009.225614</ele>
        <time>2025-11-19T14:43:51.419Z</time>
      </trkpt>
      <trkpt lat="44.45304" lon="6.29407">
        <ele>1008.467085</ele>
        <time>2025-11-19T14:43:59.401Z</time>
      </trkpt>
      <trkpt lat="44.45313" lon="6.294">
        <ele>1007.666097</ele>
        <time>2025-11-19T14:44:07.425Z</time>
      </trkpt>
      <trkpt lat="44.45321" lon="6.29395">
        <ele>1006.927329</ele>
        <time>2025-11-19T14:44:14.403Z</time>
      </trkpt>
      <trkpt lat="44.4533" lon="6.29394">
        <ele>1006.16763</ele>
        <time>2025-11-19T14:44:21.431Z</time>
      </trkpt>
      <trkpt lat="44.45341" lon="6.29394">
        <ele>1005.295037</ele>
        <time>2025-11-19T14:44:29.406Z</time>
      </trkpt>
      <trkpt lat="44.45351" lon="6.29388">
        <ele>1004.44716</ele>
        <time>2025-11-19T14:44:37.408Z</time>
      </trkpt>
      <trkpt lat="44.45358" lon="6.2938">
        <ele>1003.658968</ele>
        <time>2025-11-19T14:44:46.415Z</time>
      </trkpt>
      <trkpt lat="44.45366" lon="6.29374">
        <ele>1002.925984</ele>
        <time>2025-11-19T14:44:53.412Z</time>
      </trkpt>
      <trkpt lat="44.45375" lon="6.29367">
        <ele>1002.109115</ele>
        <time>2025-11-19T14:45:01.420Z</time>
      </trkpt>
      <trkpt lat="44.45383" lon="6.29361">
        <ele>1001.345718</ele>
        <time>2025-11-19T14:45:09.394Z</time>
      </trkpt>
      <trkpt lat="44.45391" lon="6.29355">
        <ele>1000.573121</ele>
        <time>2025-11-19T14:45:15.416Z</time>
      </trkpt>
      <trkpt lat="44.45399" lon="6.29348">
        <ele>999.637364</ele>
        <time>2025-11-19T14:45:23.432Z</time>
      </trkpt>
      <trkpt lat="44.45408" lon="6.29342">
        <ele>998.584293</ele>
        <time>2025-11-19T14:45:32.399Z</time>
      </trkpt>
      <trkpt lat="44.45417" lon="6.29335">
        <ele>997.599898</ele>
        <time>2025-11-19T14:45:39.431Z</time>
      </trkpt>
      <trkpt lat="44.45425" lon="6.29328">
        <ele>996.672719</ele>
        <time>2025-11-19T14:45:47.406Z</time>
      </trkpt>
      <trkpt lat="44.45433" lon="6.29324">
        <ele>995.755537</ele>
        <time>2025-11-19T14:45:54.423Z</time>
      </trkpt>
      <trkpt lat="44.45442" lon="6.29327">
        <ele>994.831402</ele>
        <time>2025-11-19T14:46:00.416Z</time>
      </trkpt>
      <trkpt lat="44.45451" lon="6.29332">
        <ele>993.904018</ele>
        <time>2025-11-19T14:46:07.422Z</time>
      </trkpt>
      <trkpt lat="44.45459" lon="6.29338">
        <ele>992.98982</ele>
        <time>2025-11-19T14:46:14.410Z</time>
      </trkpt>
      <trkpt lat="44.45467" lon="6.29346">
        <ele>992.033388</ele>
        <time>2025-11-19T14:46:23.399Z</time>
      </trkpt>
      <trkpt lat="44.45475" lon="6.29354">
        <ele>990.970725</ele>
        <time>2025-11-19T14:46:33.414Z</time>
      </trkpt>
      <trkpt lat="44.45484" lon="6.2936">
        <ele>989.987401</ele>
        <time>2025-11-19T14:46:41.428Z</time>
      </trkpt>
      <trkpt lat="44.45492" lon="6.29367">
        <ele>989.041426</ele>
        <time>2025-11-19T14:46:49.415Z</time>
      </trkpt>
      <trkpt lat="44.45502" lon="6.29372">
        <ele>988.022258</ele>
        <time>2025-11-19T14:46:57.404Z</time>
      </trkpt>
      <trkpt lat="44.45511" lon="6.29371">
        <ele>987.096639</ele>
        <time>2025-11-19T14:47:04.410Z</time>
      </trkpt>
      <trkpt lat="44.4552" lon="6.29376">
        <ele>986.152536</ele>
        <time>2025-11-19T14:47:19.413Z</time>
      </trkpt>
      <trkpt lat="44.45523" lon="6.29388">
        <ele>985.243351</ele>
        <time>2025-11-19T14:47:27.425Z</time>
      </trkpt>
      <trkpt lat="44.45531" lon="6.29394">
        <ele>984.315248</ele>
        <time>2025-11-19T14:47:35.396Z</time>
      </trkpt>
      <trkpt lat="44.4554" lon="6.29401">
        <ele>983.303099</ele>
        <time>2025-11-19T14:47:44.421Z</time>
      </trkpt>
      <trkpt lat="44.45548" lon="6.29408">
        <ele>982.544422</ele>
        <time>2025-11-19T14:47:52.418Z</time>
      </trkpt>
      <trkpt lat="44.45555" lon="6.29416">
        <ele>982.063148</ele>
        <time>2025-11-19T14:48:00.429Z</time>
      </trkpt>
      <trkpt lat="44.45563" lon="6.29424">
        <ele>981.561323</ele>
        <time>2025-11-19T14:48:09.414Z</time>
      </trkpt>
      <trkpt lat="44.45572" lon="6.2943">
        <ele>981.037199</ele>
        <time>2025-11-19T14:48:18.425Z</time>
      </trkpt>
      <trkpt lat="44.45581" lon="6.29435">
        <ele>980.523756</ele>
        <time>2025-11-19T14:48:26.399Z</time>
      </trkpt>
      <trkpt lat="44.45598" lon="6.29446">
        <ele>979.544271</ele>
        <time>2025-11-19T14:49:05.437Z</time>
      </trkpt>
      <trkpt lat="44.45605" lon="6.29454">
        <ele>979.040396</ele>
        <time>2025-11-19T14:49:16.385Z</time>
      </trkpt>
      <trkpt lat="44.45612" lon="6.29463">
        <ele>978.544651</ele>
        <time>2025-11-19T14:49:22.409Z</time>
      </trkpt>
      <trkpt lat="44.45622" lon="6.29457">
        <ele>978.002912</ele>
        <time>2025-11-19T14:49:38.381Z</time>
      </trkpt>
      <trkpt lat="44.45629" lon="6.2945">
        <ele>977.529228</ele>
        <time>2025-11-19T14:49:56.383Z</time>
      </trkpt>
      <trkpt lat="44.45636" lon="6.2944">
        <ele>977.01105</ele>
        <time>2025-11-19T14:50:05.389Z</time>
      </trkpt>
      <trkpt lat="44.45644" lon="6.29431">
        <ele>976.490405</ele>
        <time>2025-11-19T14:50:13.372Z</time>
      </trkpt>
      <trkpt lat="44.45652" lon="6.29424">
        <ele>975.97378</ele>
        <time>2025-11-19T14:50:22.405Z</time>
      </trkpt>
      <trkpt lat="44.45659" lon="6.29417">
        <ele>975.492872</ele>
        <time>2025-11-19T14:50:29.372Z</time>
      </trkpt>
      <trkpt lat="44.45668" lon="6.29412">
        <ele>975.004102</ele>
        <time>2025-11-19T14:50:45.391Z</time>
      </trkpt>
      <trkpt lat="44.45672" lon="6.294">
        <ele>974.518422</ele>
        <time>2025-11-19T14:50:52.380Z</time>
      </trkpt>
      <trkpt lat="44.45676" lon="6.29389">
        <ele>974.036143</ele>
        <time>2025-11-19T14:50:59.419Z</time>
      </trkpt>
      <trkpt lat="44.4568" lon="6.29377">
        <ele>973.540858</ele>
        <time>2025-11-19T14:51:05.410Z</time>
      </trkpt>
      <trkpt lat="44.45685" lon="6.29366">
        <ele>973.300177</ele>
        <time>2025-11-19T14:51:11.418Z</time>
      </trkpt>
      <trkpt lat="44.45688" lon="6.29352">
        <ele>973.300177</ele>
        <time>2025-11-19T14:51:20.416Z</time>
      </trkpt>
      <trkpt lat="44.45693" lon="6.2934">
        <ele>973.300177</ele>
        <time>2025-11-19T14:51:27.430Z</time>
      </trkpt>
      <trkpt lat="44.45699" lon="6.2933">
        <ele>973.300177</ele>
        <time>2025-11-19T14:51:33.401Z</time>
      </trkpt>
      <trkpt lat="44.45703" lon="6.29317">
        <ele>973.300177</ele>
        <time>2025-11-19T14:51:40.412Z</time>
      </trkpt>
      <trkpt lat="44.45709" lon="6.29305">
        <ele>973.300177</ele>
        <time>2025-11-19T14:51:47.417Z</time>
      </trkpt>
      <trkpt lat="44.45713" lon="6.29292">
        <ele>973.300177</ele>
        <time>2025-11-19T14:51:55.438Z</time>
      </trkpt>
      <trkpt lat="44.45717" lon="6.2928">
        <ele>973.300177</ele>
        <time>2025-11-19T14:52:02.405Z</time>
      </trkpt>
      <trkpt lat="44.45723" lon="6.29271">
        <ele>973.300177</ele>
        <time>2025-11-19T14:52:09.415Z</time>
      </trkpt>
      <trkpt lat="44.45729" lon="6.2926">
        <ele>973.300177</ele>
        <time>2025-11-19T14:52:21.389Z</time>
      </trkpt>
      <trkpt lat="44.45734" lon="6.29248">
        <ele>973.300177</ele>
        <time>2025-11-19T14:52:30.429Z</time>
      </trkpt>
      <trkpt lat="44.45742" lon="6.29238">
        <ele>973.300177</ele>
        <time>2025-11-19T14:52:39.413Z</time>
      </trkpt>
      <trkpt lat="44.4575" lon="6.2923">
        <ele>973.300177</ele>
        <time>2025-11-19T14:52:47.415Z</time>
      </trkpt>
      <trkpt lat="44.45757" lon="6.29223">
        <ele>973.300177</ele>
        <time>2025-11-19T14:52:54.438Z</time>
      </trkpt>
      <trkpt lat="44.45765" lon="6.29215">
        <ele>973.300177</ele>
        <time>2025-11-19T14:53:02.417Z</time>
      </trkpt>
      <trkpt lat="44.45771" lon="6.29205">
        <ele>973.300177</ele>
        <time>2025-11-19T14:53:20.444Z</time>
      </trkpt>
    </trkseg>
  </trk>
</gpx>